<?xml version="1.0" encoding="UTF-8" standalone="no" ?>
<gpx xmlns="http://www.topografix.com/GPX/1/1" xmlns:xsi="http://www.w3.org/2001/XMLSchema-instance" xsi:schemaLocation="http://www.topografix.com/GPX/1/1 http://www.topografix.com/GPX/1/1/gpx.xsd" version="1.1" creator="VisuGPX - https://www.visugpx.com">
  <metadata>
    <name>GTA29-Rimplas / St Dalmas Valdeblore</name>
    <desc><![CDATA[
Site GTA
+ 515  /  - 217
6 Km
2h00
Diff globale 1/4]]></desc>
  </metadata>
  <trk>
    <name><![CDATA[GTA29-Rimplas / St Dalmas Valdeblore]]></name>
    <desc><![CDATA[Site GTA
+ 515  /  - 217
6 Km
2h00
Diff globale 1/4]]></desc>
    <trkseg>
      <trkpt lat="44.06414" lon="7.13061">
        <ele>1016.25</ele>
        <time>2017-07-27T07:36:22Z</time>
      </trkpt>
      <trkpt lat="44.06414" lon="7.1306">
        <ele>1016.25</ele>
        <time>2017-07-27T07:36:49Z</time>
      </trkpt>
      <trkpt lat="44.06409" lon="7.13068">
        <ele>1016.73</ele>
        <time>2017-07-27T07:37:08Z</time>
      </trkpt>
      <trkpt lat="44.06398" lon="7.13074">
        <ele>1017.69</ele>
        <time>2017-07-27T07:37:23Z</time>
      </trkpt>
      <trkpt lat="44.06384" lon="7.13077">
        <ele>1018.17</ele>
        <time>2017-07-27T07:37:40Z</time>
      </trkpt>
      <trkpt lat="44.06372" lon="7.13074">
        <ele>1019.13</ele>
        <time>2017-07-27T07:37:54Z</time>
      </trkpt>
      <trkpt lat="44.06365" lon="7.13069">
        <ele>1019.62</ele>
        <time>2017-07-27T07:38:09Z</time>
      </trkpt>
      <trkpt lat="44.06363" lon="7.13075">
        <ele>1020.1</ele>
        <time>2017-07-27T07:38:24Z</time>
      </trkpt>
      <trkpt lat="44.06365" lon="7.13086">
        <ele>1021.06</ele>
        <time>2017-07-27T07:38:39Z</time>
      </trkpt>
      <trkpt lat="44.0637" lon="7.1309">
        <ele>1021.54</ele>
        <time>2017-07-27T07:38:53Z</time>
      </trkpt>
      <trkpt lat="44.06374" lon="7.13089">
        <ele>1021.54</ele>
        <time>2017-07-27T07:39:17Z</time>
      </trkpt>
      <trkpt lat="44.06373" lon="7.13091">
        <ele>1021.54</ele>
        <time>2017-07-27T07:39:31Z</time>
      </trkpt>
      <trkpt lat="44.06378" lon="7.13091">
        <ele>1021.54</ele>
        <time>2017-07-27T07:39:47Z</time>
      </trkpt>
      <trkpt lat="44.06383" lon="7.13093">
        <ele>1021.06</ele>
        <time>2017-07-27T07:40:01Z</time>
      </trkpt>
      <trkpt lat="44.06385" lon="7.13091">
        <ele>1021.06</ele>
        <time>2017-07-27T07:40:14Z</time>
      </trkpt>
      <trkpt lat="44.06395" lon="7.13093">
        <ele>1021.06</ele>
        <time>2017-07-27T07:40:28Z</time>
      </trkpt>
      <trkpt lat="44.06401" lon="7.13104">
        <ele>1022.02</ele>
        <time>2017-07-27T07:40:43Z</time>
      </trkpt>
      <trkpt lat="44.06404" lon="7.13114">
        <ele>1022.02</ele>
        <time>2017-07-27T07:41:07Z</time>
      </trkpt>
      <trkpt lat="44.06414" lon="7.13104">
        <ele>1022.02</ele>
        <time>2017-07-27T07:41:23Z</time>
      </trkpt>
      <trkpt lat="44.06423" lon="7.13098">
        <ele>1022.98</ele>
        <time>2017-07-27T07:41:39Z</time>
      </trkpt>
      <trkpt lat="44.06431" lon="7.13084">
        <ele>1022.98</ele>
        <time>2017-07-27T07:41:53Z</time>
      </trkpt>
      <trkpt lat="44.06434" lon="7.13088">
        <ele>1024.42</ele>
        <time>2017-07-27T07:42:08Z</time>
      </trkpt>
      <trkpt lat="44.06434" lon="7.13099">
        <ele>1025.86</ele>
        <time>2017-07-27T07:42:26Z</time>
      </trkpt>
      <trkpt lat="44.06431" lon="7.13104">
        <ele>1026.34</ele>
        <time>2017-07-27T07:42:44Z</time>
      </trkpt>
      <trkpt lat="44.06428" lon="7.13108">
        <ele>1026.34</ele>
        <time>2017-07-27T07:43:02Z</time>
      </trkpt>
      <trkpt lat="44.06425" lon="7.13111">
        <ele>1026.34</ele>
        <time>2017-07-27T07:43:19Z</time>
      </trkpt>
      <trkpt lat="44.06421" lon="7.13117">
        <ele>1026.83</ele>
        <time>2017-07-27T07:43:33Z</time>
      </trkpt>
      <trkpt lat="44.0642" lon="7.13116">
        <ele>1026.34</ele>
        <time>2017-07-27T07:43:51Z</time>
      </trkpt>
      <trkpt lat="44.06423" lon="7.13116">
        <ele>1026.83</ele>
        <time>2017-07-27T07:44:17Z</time>
      </trkpt>
      <trkpt lat="44.06422" lon="7.13114">
        <ele>1027.31</ele>
        <time>2017-07-27T07:44:38Z</time>
      </trkpt>
      <trkpt lat="44.06419" lon="7.13112">
        <ele>1025.86</ele>
        <time>2017-07-27T07:44:59Z</time>
      </trkpt>
      <trkpt lat="44.06415" lon="7.13115">
        <ele>1025.86</ele>
        <time>2017-07-27T07:45:13Z</time>
      </trkpt>
      <trkpt lat="44.06409" lon="7.13115">
        <ele>1025.38</ele>
        <time>2017-07-27T07:45:28Z</time>
      </trkpt>
      <trkpt lat="44.06407" lon="7.13116">
        <ele>1024.42</ele>
        <time>2017-07-27T07:45:41Z</time>
      </trkpt>
      <trkpt lat="44.06414" lon="7.13114">
        <ele>1024.42</ele>
        <time>2017-07-27T07:45:57Z</time>
      </trkpt>
      <trkpt lat="44.06411" lon="7.13118">
        <ele>1025.38</ele>
        <time>2017-07-27T07:46:11Z</time>
      </trkpt>
      <trkpt lat="44.06408" lon="7.13124">
        <ele>1025.38</ele>
        <time>2017-07-27T07:46:24Z</time>
      </trkpt>
      <trkpt lat="44.06405" lon="7.13128">
        <ele>1025.38</ele>
        <time>2017-07-27T07:46:41Z</time>
      </trkpt>
      <trkpt lat="44.06407" lon="7.13141">
        <ele>1025.86</ele>
        <time>2017-07-27T07:46:55Z</time>
      </trkpt>
      <trkpt lat="44.064" lon="7.13143">
        <ele>1025.86</ele>
        <time>2017-07-27T07:47:12Z</time>
      </trkpt>
      <trkpt lat="44.06391" lon="7.13145">
        <ele>1024.42</ele>
        <time>2017-07-27T07:47:32Z</time>
      </trkpt>
      <trkpt lat="44.06386" lon="7.13148">
        <ele>1023.94</ele>
        <time>2017-07-27T07:47:47Z</time>
      </trkpt>
      <trkpt lat="44.06394" lon="7.13144">
        <ele>1023.94</ele>
        <time>2017-07-27T07:48:05Z</time>
      </trkpt>
      <trkpt lat="44.06397" lon="7.13142">
        <ele>1025.38</ele>
        <time>2017-07-27T07:48:11Z</time>
      </trkpt>
      <trkpt lat="44.06395" lon="7.13135">
        <ele>1024.9</ele>
        <time>2017-07-27T07:48:24Z</time>
      </trkpt>
      <trkpt lat="44.06392" lon="7.13133">
        <ele>1023.94</ele>
        <time>2017-07-27T07:48:29Z</time>
      </trkpt>
      <trkpt lat="44.06387" lon="7.13122">
        <ele>1022.02</ele>
        <time>2017-07-27T07:48:46Z</time>
      </trkpt>
      <trkpt lat="44.06388" lon="7.13117">
        <ele>1021.54</ele>
        <time>2017-07-27T07:49:02Z</time>
      </trkpt>
      <trkpt lat="44.06379" lon="7.13112">
        <ele>1021.06</ele>
        <time>2017-07-27T07:49:22Z</time>
      </trkpt>
      <trkpt lat="44.06369" lon="7.13111">
        <ele>1020.58</ele>
        <time>2017-07-27T07:49:40Z</time>
      </trkpt>
      <trkpt lat="44.06371" lon="7.13114">
        <ele>1020.1</ele>
        <time>2017-07-27T07:50:06Z</time>
      </trkpt>
      <trkpt lat="44.06376" lon="7.13118">
        <ele>1020.1</ele>
        <time>2017-07-27T07:50:33Z</time>
      </trkpt>
      <trkpt lat="44.06372" lon="7.13114">
        <ele>1020.58</ele>
        <time>2017-07-27T07:50:57Z</time>
      </trkpt>
      <trkpt lat="44.06372" lon="7.13108">
        <ele>1020.1</ele>
        <time>2017-07-27T07:51:22Z</time>
      </trkpt>
      <trkpt lat="44.06376" lon="7.13113">
        <ele>1020.1</ele>
        <time>2017-07-27T07:51:37Z</time>
      </trkpt>
      <trkpt lat="44.06383" lon="7.13116">
        <ele>1020.1</ele>
        <time>2017-07-27T07:51:51Z</time>
      </trkpt>
      <trkpt lat="44.06386" lon="7.13118">
        <ele>1020.1</ele>
        <time>2017-07-27T07:52:11Z</time>
      </trkpt>
      <trkpt lat="44.06387" lon="7.1312">
        <ele>1019.62</ele>
        <time>2017-07-27T07:52:42Z</time>
      </trkpt>
      <trkpt lat="44.0638" lon="7.13108">
        <ele>1019.62</ele>
        <time>2017-07-27T07:53:02Z</time>
      </trkpt>
      <trkpt lat="44.06377" lon="7.1311">
        <ele>1019.62</ele>
        <time>2017-07-27T07:53:20Z</time>
      </trkpt>
      <trkpt lat="44.06385" lon="7.13115">
        <ele>1019.13</ele>
        <time>2017-07-27T07:53:43Z</time>
      </trkpt>
      <trkpt lat="44.06391" lon="7.13129">
        <ele>1020.1</ele>
        <time>2017-07-27T07:53:59Z</time>
      </trkpt>
      <trkpt lat="44.06392" lon="7.13131">
        <ele>1020.58</ele>
        <time>2017-07-27T07:54:04Z</time>
      </trkpt>
      <trkpt lat="44.06395" lon="7.13136">
        <ele>1021.54</ele>
        <time>2017-07-27T07:54:16Z</time>
      </trkpt>
      <trkpt lat="44.06399" lon="7.1314">
        <ele>1021.54</ele>
        <time>2017-07-27T07:54:32Z</time>
      </trkpt>
      <trkpt lat="44.06398" lon="7.13143">
        <ele>1022.02</ele>
        <time>2017-07-27T07:54:48Z</time>
      </trkpt>
      <trkpt lat="44.06393" lon="7.13145">
        <ele>1022.02</ele>
        <time>2017-07-27T07:55:02Z</time>
      </trkpt>
      <trkpt lat="44.06392" lon="7.13146">
        <ele>1020.58</ele>
        <time>2017-07-27T07:55:04Z</time>
      </trkpt>
      <trkpt lat="44.06388" lon="7.13154">
        <ele>1020.58</ele>
        <time>2017-07-27T07:55:21Z</time>
      </trkpt>
      <trkpt lat="44.06391" lon="7.13151">
        <ele>1020.58</ele>
        <time>2017-07-27T07:55:44Z</time>
      </trkpt>
      <trkpt lat="44.06392" lon="7.13151">
        <ele>1020.1</ele>
        <time>2017-07-27T07:56:15Z</time>
      </trkpt>
      <trkpt lat="44.06391" lon="7.13155">
        <ele>1020.1</ele>
        <time>2017-07-27T07:56:40Z</time>
      </trkpt>
      <trkpt lat="44.0639" lon="7.13156">
        <ele>1020.1</ele>
        <time>2017-07-27T07:57:04Z</time>
      </trkpt>
      <trkpt lat="44.06393" lon="7.13156">
        <ele>1020.1</ele>
        <time>2017-07-27T07:57:22Z</time>
      </trkpt>
      <trkpt lat="44.06393" lon="7.13158">
        <ele>1020.1</ele>
        <time>2017-07-27T07:57:24Z</time>
      </trkpt>
      <trkpt lat="44.06392" lon="7.13164">
        <ele>1019.13</ele>
        <time>2017-07-27T07:57:29Z</time>
      </trkpt>
      <trkpt lat="44.0639" lon="7.1317">
        <ele>1019.13</ele>
        <time>2017-07-27T07:57:43Z</time>
      </trkpt>
      <trkpt lat="44.06393" lon="7.1318">
        <ele>1018.17</ele>
        <time>2017-07-27T07:57:55Z</time>
      </trkpt>
      <trkpt lat="44.06394" lon="7.13188">
        <ele>1017.21</ele>
        <time>2017-07-27T07:58:11Z</time>
      </trkpt>
      <trkpt lat="44.06397" lon="7.13201">
        <ele>1015.77</ele>
        <time>2017-07-27T07:58:26Z</time>
      </trkpt>
      <trkpt lat="44.06398" lon="7.13207">
        <ele>1010</ele>
        <time>2017-07-27T07:58:31Z</time>
      </trkpt>
      <trkpt lat="44.06398" lon="7.13208">
        <ele>1020.58</ele>
        <time>2017-07-27T07:58:32Z</time>
      </trkpt>
      <trkpt lat="44.06398" lon="7.13209">
        <ele>1015.77</ele>
        <time>2017-07-27T07:58:33Z</time>
      </trkpt>
      <trkpt lat="44.06399" lon="7.13222">
        <ele>1014.33</ele>
        <time>2017-07-27T07:58:51Z</time>
      </trkpt>
      <trkpt lat="44.06394" lon="7.13226">
        <ele>1013.85</ele>
        <time>2017-07-27T07:59:04Z</time>
      </trkpt>
      <trkpt lat="44.06399" lon="7.13243">
        <ele>1013.85</ele>
        <time>2017-07-27T07:59:20Z</time>
      </trkpt>
      <trkpt lat="44.06406" lon="7.13261">
        <ele>1012.89</ele>
        <time>2017-07-27T07:59:39Z</time>
      </trkpt>
      <trkpt lat="44.06405" lon="7.13266">
        <ele>1012.41</ele>
        <time>2017-07-27T07:59:52Z</time>
      </trkpt>
      <trkpt lat="44.06404" lon="7.13269">
        <ele>1012.41</ele>
        <time>2017-07-27T08:00:13Z</time>
      </trkpt>
      <trkpt lat="44.06404" lon="7.13268">
        <ele>1012.41</ele>
        <time>2017-07-27T08:00:36Z</time>
      </trkpt>
      <trkpt lat="44.06406" lon="7.1327">
        <ele>1012.41</ele>
        <time>2017-07-27T08:01:06Z</time>
      </trkpt>
      <trkpt lat="44.06409" lon="7.13278">
        <ele>1010.48</ele>
        <time>2017-07-27T08:01:18Z</time>
      </trkpt>
      <trkpt lat="44.06414" lon="7.13293">
        <ele>1007.12</ele>
        <time>2017-07-27T08:01:33Z</time>
      </trkpt>
      <trkpt lat="44.06416" lon="7.13305">
        <ele>1005.68</ele>
        <time>2017-07-27T08:01:51Z</time>
      </trkpt>
      <trkpt lat="44.06416" lon="7.13319">
        <ele>1002.31</ele>
        <time>2017-07-27T08:02:07Z</time>
      </trkpt>
      <trkpt lat="44.06416" lon="7.13318">
        <ele>1002.31</ele>
        <time>2017-07-27T08:02:24Z</time>
      </trkpt>
      <trkpt lat="44.06416" lon="7.13318">
        <ele>1002.31</ele>
        <time>2017-07-27T08:02:59Z</time>
      </trkpt>
      <trkpt lat="44.06416" lon="7.13316">
        <ele>1002.31</ele>
        <time>2017-07-27T08:03:29Z</time>
      </trkpt>
      <trkpt lat="44.06415" lon="7.13318">
        <ele>1002.31</ele>
        <time>2017-07-27T08:03:54Z</time>
      </trkpt>
      <trkpt lat="44.06416" lon="7.13321">
        <ele>1002.31</ele>
        <time>2017-07-27T08:04:06Z</time>
      </trkpt>
      <trkpt lat="44.06418" lon="7.13325">
        <ele>1001.83</ele>
        <time>2017-07-27T08:04:13Z</time>
      </trkpt>
      <trkpt lat="44.06428" lon="7.13342">
        <ele>999.91</ele>
        <time>2017-07-27T08:04:29Z</time>
      </trkpt>
      <trkpt lat="44.06436" lon="7.1335">
        <ele>997.51</ele>
        <time>2017-07-27T08:04:44Z</time>
      </trkpt>
      <trkpt lat="44.06443" lon="7.13363">
        <ele>994.62</ele>
        <time>2017-07-27T08:05:00Z</time>
      </trkpt>
      <trkpt lat="44.0645" lon="7.13374">
        <ele>993.18</ele>
        <time>2017-07-27T08:05:13Z</time>
      </trkpt>
      <trkpt lat="44.06458" lon="7.13384">
        <ele>990.78</ele>
        <time>2017-07-27T08:05:28Z</time>
      </trkpt>
      <trkpt lat="44.06465" lon="7.13402">
        <ele>988.37</ele>
        <time>2017-07-27T08:05:43Z</time>
      </trkpt>
      <trkpt lat="44.06468" lon="7.13419">
        <ele>985.97</ele>
        <time>2017-07-27T08:05:59Z</time>
      </trkpt>
      <trkpt lat="44.06472" lon="7.1344">
        <ele>983.57</ele>
        <time>2017-07-27T08:06:16Z</time>
      </trkpt>
      <trkpt lat="44.06474" lon="7.13459">
        <ele>982.12</ele>
        <time>2017-07-27T08:06:33Z</time>
      </trkpt>
      <trkpt lat="44.06476" lon="7.13478">
        <ele>979.72</ele>
        <time>2017-07-27T08:06:49Z</time>
      </trkpt>
      <trkpt lat="44.0648" lon="7.13499">
        <ele>977.8</ele>
        <time>2017-07-27T08:07:07Z</time>
      </trkpt>
      <trkpt lat="44.0648" lon="7.13502">
        <ele>977.32</ele>
        <time>2017-07-27T08:07:09Z</time>
      </trkpt>
      <trkpt lat="44.06479" lon="7.13505">
        <ele>977.32</ele>
        <time>2017-07-27T08:07:24Z</time>
      </trkpt>
      <trkpt lat="44.06478" lon="7.13501">
        <ele>976.84</ele>
        <time>2017-07-27T08:07:58Z</time>
      </trkpt>
      <trkpt lat="44.0648" lon="7.13508">
        <ele>976.84</ele>
        <time>2017-07-27T08:08:28Z</time>
      </trkpt>
      <trkpt lat="44.06482" lon="7.1353">
        <ele>975.39</ele>
        <time>2017-07-27T08:08:45Z</time>
      </trkpt>
      <trkpt lat="44.06487" lon="7.13551">
        <ele>973.95</ele>
        <time>2017-07-27T08:09:02Z</time>
      </trkpt>
      <trkpt lat="44.06488" lon="7.1357">
        <ele>971.07</ele>
        <time>2017-07-27T08:09:19Z</time>
      </trkpt>
      <trkpt lat="44.06496" lon="7.13589">
        <ele>970.11</ele>
        <time>2017-07-27T08:09:35Z</time>
      </trkpt>
      <trkpt lat="44.06504" lon="7.13602">
        <ele>969.15</ele>
        <time>2017-07-27T08:09:48Z</time>
      </trkpt>
      <trkpt lat="44.06513" lon="7.1361">
        <ele>969.15</ele>
        <time>2017-07-27T08:09:59Z</time>
      </trkpt>
      <trkpt lat="44.06532" lon="7.13622">
        <ele>967.7</ele>
        <time>2017-07-27T08:10:19Z</time>
      </trkpt>
      <trkpt lat="44.06548" lon="7.13632">
        <ele>965.78</ele>
        <time>2017-07-27T08:10:38Z</time>
      </trkpt>
      <trkpt lat="44.06563" lon="7.13643">
        <ele>963.86</ele>
        <time>2017-07-27T08:10:53Z</time>
      </trkpt>
      <trkpt lat="44.06568" lon="7.13648">
        <ele>962.9</ele>
        <time>2017-07-27T08:11:07Z</time>
      </trkpt>
      <trkpt lat="44.06576" lon="7.1366">
        <ele>960.98</ele>
        <time>2017-07-27T08:11:23Z</time>
      </trkpt>
      <trkpt lat="44.06587" lon="7.13673">
        <ele>958.57</ele>
        <time>2017-07-27T08:11:39Z</time>
      </trkpt>
      <trkpt lat="44.06599" lon="7.13689">
        <ele>955.69</ele>
        <time>2017-07-27T08:11:57Z</time>
      </trkpt>
      <trkpt lat="44.06599" lon="7.1369">
        <ele>955.69</ele>
        <time>2017-07-27T08:11:58Z</time>
      </trkpt>
      <trkpt lat="44.06609" lon="7.13707">
        <ele>953.28</ele>
        <time>2017-07-27T08:12:15Z</time>
      </trkpt>
      <trkpt lat="44.06622" lon="7.13723">
        <ele>951.36</ele>
        <time>2017-07-27T08:12:33Z</time>
      </trkpt>
      <trkpt lat="44.06634" lon="7.13739">
        <ele>949.92</ele>
        <time>2017-07-27T08:12:50Z</time>
      </trkpt>
      <trkpt lat="44.06646" lon="7.13758">
        <ele>948</ele>
        <time>2017-07-27T08:13:09Z</time>
      </trkpt>
      <trkpt lat="44.06647" lon="7.13763">
        <ele>947.52</ele>
        <time>2017-07-27T08:13:25Z</time>
      </trkpt>
      <trkpt lat="44.06661" lon="7.1378">
        <ele>946.07</ele>
        <time>2017-07-27T08:13:43Z</time>
      </trkpt>
      <trkpt lat="44.06672" lon="7.13795">
        <ele>945.11</ele>
        <time>2017-07-27T08:13:59Z</time>
      </trkpt>
      <trkpt lat="44.06683" lon="7.13808">
        <ele>944.63</ele>
        <time>2017-07-27T08:14:16Z</time>
      </trkpt>
      <trkpt lat="44.06698" lon="7.13805">
        <ele>944.15</ele>
        <time>2017-07-27T08:14:32Z</time>
      </trkpt>
      <trkpt lat="44.06707" lon="7.13809">
        <ele>941.75</ele>
        <time>2017-07-27T08:14:46Z</time>
      </trkpt>
      <trkpt lat="44.06712" lon="7.13826">
        <ele>939.83</ele>
        <time>2017-07-27T08:15:00Z</time>
      </trkpt>
      <trkpt lat="44.0671" lon="7.13837">
        <ele>938.86</ele>
        <time>2017-07-27T08:15:07Z</time>
      </trkpt>
      <trkpt lat="44.06698" lon="7.13861">
        <ele>935.98</ele>
        <time>2017-07-27T08:15:26Z</time>
      </trkpt>
      <trkpt lat="44.06691" lon="7.13881">
        <ele>934.06</ele>
        <time>2017-07-27T08:15:43Z</time>
      </trkpt>
      <trkpt lat="44.06691" lon="7.13886">
        <ele>934.06</ele>
        <time>2017-07-27T08:15:57Z</time>
      </trkpt>
      <trkpt lat="44.0669" lon="7.13897">
        <ele>934.06</ele>
        <time>2017-07-27T08:16:19Z</time>
      </trkpt>
      <trkpt lat="44.06691" lon="7.1391">
        <ele>935.5</ele>
        <time>2017-07-27T08:16:30Z</time>
      </trkpt>
      <trkpt lat="44.06688" lon="7.13918">
        <ele>935.5</ele>
        <time>2017-07-27T08:16:46Z</time>
      </trkpt>
      <trkpt lat="44.06692" lon="7.13934">
        <ele>936.46</ele>
        <time>2017-07-27T08:17:01Z</time>
      </trkpt>
      <trkpt lat="44.06697" lon="7.13955">
        <ele>937.42</ele>
        <time>2017-07-27T08:17:18Z</time>
      </trkpt>
      <trkpt lat="44.06702" lon="7.13965">
        <ele>939.35</ele>
        <time>2017-07-27T08:17:31Z</time>
      </trkpt>
      <trkpt lat="44.06705" lon="7.13977">
        <ele>940.79</ele>
        <time>2017-07-27T08:17:45Z</time>
      </trkpt>
      <trkpt lat="44.06706" lon="7.13997">
        <ele>939.83</ele>
        <time>2017-07-27T08:18:01Z</time>
      </trkpt>
      <trkpt lat="44.06707" lon="7.14016">
        <ele>937.9</ele>
        <time>2017-07-27T08:18:17Z</time>
      </trkpt>
      <trkpt lat="44.06707" lon="7.14029">
        <ele>936.46</ele>
        <time>2017-07-27T08:18:29Z</time>
      </trkpt>
      <trkpt lat="44.06707" lon="7.14045">
        <ele>934.54</ele>
        <time>2017-07-27T08:18:43Z</time>
      </trkpt>
      <trkpt lat="44.06707" lon="7.14068">
        <ele>931.65</ele>
        <time>2017-07-27T08:19:01Z</time>
      </trkpt>
      <trkpt lat="44.06709" lon="7.14081">
        <ele>930.69</ele>
        <time>2017-07-27T08:19:16Z</time>
      </trkpt>
      <trkpt lat="44.06708" lon="7.14105">
        <ele>929.73</ele>
        <time>2017-07-27T08:19:33Z</time>
      </trkpt>
      <trkpt lat="44.06709" lon="7.14128">
        <ele>928.77</ele>
        <time>2017-07-27T08:19:51Z</time>
      </trkpt>
      <trkpt lat="44.06709" lon="7.14135">
        <ele>928.29</ele>
        <time>2017-07-27T08:20:04Z</time>
      </trkpt>
      <trkpt lat="44.06707" lon="7.14147">
        <ele>925.89</ele>
        <time>2017-07-27T08:20:17Z</time>
      </trkpt>
      <trkpt lat="44.0671" lon="7.14159">
        <ele>923.96</ele>
        <time>2017-07-27T08:20:33Z</time>
      </trkpt>
      <trkpt lat="44.06707" lon="7.1417">
        <ele>921.56</ele>
        <time>2017-07-27T08:20:49Z</time>
      </trkpt>
      <trkpt lat="44.0671" lon="7.14179">
        <ele>919.64</ele>
        <time>2017-07-27T08:21:03Z</time>
      </trkpt>
      <trkpt lat="44.06714" lon="7.14192">
        <ele>916.75</ele>
        <time>2017-07-27T08:21:17Z</time>
      </trkpt>
      <trkpt lat="44.06717" lon="7.14202">
        <ele>914.83</ele>
        <time>2017-07-27T08:21:30Z</time>
      </trkpt>
      <trkpt lat="44.06715" lon="7.14207">
        <ele>914.35</ele>
        <time>2017-07-27T08:21:35Z</time>
      </trkpt>
      <trkpt lat="44.06717" lon="7.14213">
        <ele>911.95</ele>
        <time>2017-07-27T08:21:48Z</time>
      </trkpt>
      <trkpt lat="44.06719" lon="7.1423">
        <ele>908.58</ele>
        <time>2017-07-27T08:22:05Z</time>
      </trkpt>
      <trkpt lat="44.06722" lon="7.14242">
        <ele>906.66</ele>
        <time>2017-07-27T08:22:19Z</time>
      </trkpt>
      <trkpt lat="44.06727" lon="7.14257">
        <ele>904.74</ele>
        <time>2017-07-27T08:22:35Z</time>
      </trkpt>
      <trkpt lat="44.06733" lon="7.14264">
        <ele>903.78</ele>
        <time>2017-07-27T08:22:50Z</time>
      </trkpt>
      <trkpt lat="44.0674" lon="7.14275">
        <ele>901.85</ele>
        <time>2017-07-27T08:23:03Z</time>
      </trkpt>
      <trkpt lat="44.06752" lon="7.14287">
        <ele>900.41</ele>
        <time>2017-07-27T08:23:19Z</time>
      </trkpt>
      <trkpt lat="44.06767" lon="7.14304">
        <ele>898.01</ele>
        <time>2017-07-27T08:23:40Z</time>
      </trkpt>
      <trkpt lat="44.06778" lon="7.14317">
        <ele>895.12</ele>
        <time>2017-07-27T08:23:57Z</time>
      </trkpt>
      <trkpt lat="44.06786" lon="7.14326">
        <ele>893.2</ele>
        <time>2017-07-27T08:24:09Z</time>
      </trkpt>
      <trkpt lat="44.06793" lon="7.14348">
        <ele>890.8</ele>
        <time>2017-07-27T08:24:28Z</time>
      </trkpt>
      <trkpt lat="44.06795" lon="7.14372">
        <ele>888.88</ele>
        <time>2017-07-27T08:24:44Z</time>
      </trkpt>
      <trkpt lat="44.0679" lon="7.14391">
        <ele>887.43</ele>
        <time>2017-07-27T08:24:57Z</time>
      </trkpt>
      <trkpt lat="44.06778" lon="7.14413">
        <ele>886.47</ele>
        <time>2017-07-27T08:25:16Z</time>
      </trkpt>
      <trkpt lat="44.06767" lon="7.14416">
        <ele>885.03</ele>
        <time>2017-07-27T08:25:29Z</time>
      </trkpt>
      <trkpt lat="44.06756" lon="7.14426">
        <ele>883.59</ele>
        <time>2017-07-27T08:25:44Z</time>
      </trkpt>
      <trkpt lat="44.06744" lon="7.14438">
        <ele>880.71</ele>
        <time>2017-07-27T08:26:01Z</time>
      </trkpt>
      <trkpt lat="44.06735" lon="7.14442">
        <ele>878.78</ele>
        <time>2017-07-27T08:26:14Z</time>
      </trkpt>
      <trkpt lat="44.06723" lon="7.14447">
        <ele>875.9</ele>
        <time>2017-07-27T08:26:31Z</time>
      </trkpt>
      <trkpt lat="44.06718" lon="7.14449">
        <ele>875.42</ele>
        <time>2017-07-27T08:26:42Z</time>
      </trkpt>
      <trkpt lat="44.06704" lon="7.1445">
        <ele>873.01</ele>
        <time>2017-07-27T08:27:00Z</time>
      </trkpt>
      <trkpt lat="44.06694" lon="7.14459">
        <ele>870.13</ele>
        <time>2017-07-27T08:27:15Z</time>
      </trkpt>
      <trkpt lat="44.06702" lon="7.14469">
        <ele>867.73</ele>
        <time>2017-07-27T08:27:31Z</time>
      </trkpt>
      <trkpt lat="44.06714" lon="7.14476">
        <ele>864.36</ele>
        <time>2017-07-27T08:27:47Z</time>
      </trkpt>
      <trkpt lat="44.06723" lon="7.14482">
        <ele>861.48</ele>
        <time>2017-07-27T08:28:01Z</time>
      </trkpt>
      <trkpt lat="44.06726" lon="7.14485">
        <ele>860.52</ele>
        <time>2017-07-27T08:28:06Z</time>
      </trkpt>
      <trkpt lat="44.06736" lon="7.14489">
        <ele>857.15</ele>
        <time>2017-07-27T08:28:20Z</time>
      </trkpt>
      <trkpt lat="44.06744" lon="7.14496">
        <ele>853.79</ele>
        <time>2017-07-27T08:28:32Z</time>
      </trkpt>
      <trkpt lat="44.06756" lon="7.14498">
        <ele>851.38</ele>
        <time>2017-07-27T08:28:47Z</time>
      </trkpt>
      <trkpt lat="44.06767" lon="7.14494">
        <ele>851.38</ele>
        <time>2017-07-27T08:29:01Z</time>
      </trkpt>
      <trkpt lat="44.06779" lon="7.14485">
        <ele>850.42</ele>
        <time>2017-07-27T08:29:18Z</time>
      </trkpt>
      <trkpt lat="44.06797" lon="7.14486">
        <ele>848.5</ele>
        <time>2017-07-27T08:29:34Z</time>
      </trkpt>
      <trkpt lat="44.06805" lon="7.1449">
        <ele>847.06</ele>
        <time>2017-07-27T08:29:47Z</time>
      </trkpt>
      <trkpt lat="44.06821" lon="7.14488">
        <ele>846.1</ele>
        <time>2017-07-27T08:30:04Z</time>
      </trkpt>
      <trkpt lat="44.06829" lon="7.14486">
        <ele>844.66</ele>
        <time>2017-07-27T08:30:15Z</time>
      </trkpt>
      <trkpt lat="44.0684" lon="7.14487">
        <ele>842.73</ele>
        <time>2017-07-27T08:30:29Z</time>
      </trkpt>
      <trkpt lat="44.06842" lon="7.14505">
        <ele>840.33</ele>
        <time>2017-07-27T08:30:45Z</time>
      </trkpt>
      <trkpt lat="44.06843" lon="7.14522">
        <ele>840.33</ele>
        <time>2017-07-27T08:30:57Z</time>
      </trkpt>
      <trkpt lat="44.06847" lon="7.14526">
        <ele>839.37</ele>
        <time>2017-07-27T08:31:18Z</time>
      </trkpt>
      <trkpt lat="44.06837" lon="7.14537">
        <ele>841.29</ele>
        <time>2017-07-27T08:31:34Z</time>
      </trkpt>
      <trkpt lat="44.06826" lon="7.14551">
        <ele>842.25</ele>
        <time>2017-07-27T08:31:50Z</time>
      </trkpt>
      <trkpt lat="44.06821" lon="7.14559">
        <ele>842.73</ele>
        <time>2017-07-27T08:31:58Z</time>
      </trkpt>
      <trkpt lat="44.06813" lon="7.14575">
        <ele>842.73</ele>
        <time>2017-07-27T08:32:13Z</time>
      </trkpt>
      <trkpt lat="44.06809" lon="7.14579">
        <ele>842.73</ele>
        <time>2017-07-27T08:32:26Z</time>
      </trkpt>
      <trkpt lat="44.06802" lon="7.1459">
        <ele>840.81</ele>
        <time>2017-07-27T08:32:37Z</time>
      </trkpt>
      <trkpt lat="44.06798" lon="7.14597">
        <ele>840.33</ele>
        <time>2017-07-27T08:32:43Z</time>
      </trkpt>
      <trkpt lat="44.06792" lon="7.14613">
        <ele>840.33</ele>
        <time>2017-07-27T08:32:58Z</time>
      </trkpt>
      <trkpt lat="44.06794" lon="7.14639">
        <ele>839.37</ele>
        <time>2017-07-27T08:33:15Z</time>
      </trkpt>
      <trkpt lat="44.06798" lon="7.1466">
        <ele>838.41</ele>
        <time>2017-07-27T08:33:30Z</time>
      </trkpt>
      <trkpt lat="44.06796" lon="7.14685">
        <ele>837.45</ele>
        <time>2017-07-27T08:33:47Z</time>
      </trkpt>
      <trkpt lat="44.06798" lon="7.14707">
        <ele>836</ele>
        <time>2017-07-27T08:34:03Z</time>
      </trkpt>
      <trkpt lat="44.06802" lon="7.14713">
        <ele>836</ele>
        <time>2017-07-27T08:34:09Z</time>
      </trkpt>
      <trkpt lat="44.06813" lon="7.14738">
        <ele>834.56</ele>
        <time>2017-07-27T08:34:30Z</time>
      </trkpt>
      <trkpt lat="44.06821" lon="7.14755">
        <ele>834.08</ele>
        <time>2017-07-27T08:34:45Z</time>
      </trkpt>
      <trkpt lat="44.06825" lon="7.14761">
        <ele>832.64</ele>
        <time>2017-07-27T08:34:55Z</time>
      </trkpt>
      <trkpt lat="44.06825" lon="7.14763">
        <ele>833.6</ele>
        <time>2017-07-27T08:34:57Z</time>
      </trkpt>
      <trkpt lat="44.06837" lon="7.14787">
        <ele>832.16</ele>
        <time>2017-07-27T08:35:16Z</time>
      </trkpt>
      <trkpt lat="44.06844" lon="7.14805">
        <ele>831.68</ele>
        <time>2017-07-27T08:35:31Z</time>
      </trkpt>
      <trkpt lat="44.0685" lon="7.14815">
        <ele>834.56</ele>
        <time>2017-07-27T08:35:44Z</time>
      </trkpt>
      <trkpt lat="44.06855" lon="7.14835">
        <ele>835.04</ele>
        <time>2017-07-27T08:36:00Z</time>
      </trkpt>
      <trkpt lat="44.06859" lon="7.14843">
        <ele>835.52</ele>
        <time>2017-07-27T08:36:07Z</time>
      </trkpt>
      <trkpt lat="44.06864" lon="7.1487">
        <ele>834.08</ele>
        <time>2017-07-27T08:36:28Z</time>
      </trkpt>
      <trkpt lat="44.06865" lon="7.14872">
        <ele>834.08</ele>
        <time>2017-07-27T08:36:29Z</time>
      </trkpt>
      <trkpt lat="44.06863" lon="7.14893">
        <ele>833.12</ele>
        <time>2017-07-27T08:36:46Z</time>
      </trkpt>
      <trkpt lat="44.06869" lon="7.14912">
        <ele>832.16</ele>
        <time>2017-07-27T08:37:02Z</time>
      </trkpt>
      <trkpt lat="44.06872" lon="7.14915">
        <ele>832.16</ele>
        <time>2017-07-27T08:37:06Z</time>
      </trkpt>
      <trkpt lat="44.06874" lon="7.14916">
        <ele>831.68</ele>
        <time>2017-07-27T08:37:09Z</time>
      </trkpt>
      <trkpt lat="44.06892" lon="7.14925">
        <ele>830.24</ele>
        <time>2017-07-27T08:37:27Z</time>
      </trkpt>
      <trkpt lat="44.06897" lon="7.14938">
        <ele>830.24</ele>
        <time>2017-07-27T08:37:40Z</time>
      </trkpt>
      <trkpt lat="44.06894" lon="7.14943">
        <ele>829.76</ele>
        <time>2017-07-27T08:37:44Z</time>
      </trkpt>
      <trkpt lat="44.06885" lon="7.14958">
        <ele>828.31</ele>
        <time>2017-07-27T08:38:00Z</time>
      </trkpt>
      <trkpt lat="44.06878" lon="7.14977">
        <ele>826.39</ele>
        <time>2017-07-27T08:38:14Z</time>
      </trkpt>
      <trkpt lat="44.06873" lon="7.14988">
        <ele>825.91</ele>
        <time>2017-07-27T08:38:27Z</time>
      </trkpt>
      <trkpt lat="44.06873" lon="7.15004">
        <ele>824.47</ele>
        <time>2017-07-27T08:38:41Z</time>
      </trkpt>
      <trkpt lat="44.06876" lon="7.15011">
        <ele>825.91</ele>
        <time>2017-07-27T08:38:48Z</time>
      </trkpt>
      <trkpt lat="44.06888" lon="7.1502">
        <ele>827.83</ele>
        <time>2017-07-27T08:39:04Z</time>
      </trkpt>
      <trkpt lat="44.06898" lon="7.1503">
        <ele>829.76</ele>
        <time>2017-07-27T08:39:20Z</time>
      </trkpt>
      <trkpt lat="44.069" lon="7.15047">
        <ele>830.72</ele>
        <time>2017-07-27T08:39:35Z</time>
      </trkpt>
      <trkpt lat="44.069" lon="7.15055">
        <ele>829.27</ele>
        <time>2017-07-27T08:39:41Z</time>
      </trkpt>
      <trkpt lat="44.06901" lon="7.15075">
        <ele>826.87</ele>
        <time>2017-07-27T08:39:58Z</time>
      </trkpt>
      <trkpt lat="44.06903" lon="7.15086">
        <ele>824.95</ele>
        <time>2017-07-27T08:40:11Z</time>
      </trkpt>
      <trkpt lat="44.0691" lon="7.15103">
        <ele>822.55</ele>
        <time>2017-07-27T08:40:27Z</time>
      </trkpt>
      <trkpt lat="44.06915" lon="7.15117">
        <ele>822.06</ele>
        <time>2017-07-27T08:40:37Z</time>
      </trkpt>
      <trkpt lat="44.06928" lon="7.15137">
        <ele>820.62</ele>
        <time>2017-07-27T08:40:55Z</time>
      </trkpt>
      <trkpt lat="44.06938" lon="7.15142">
        <ele>820.14</ele>
        <time>2017-07-27T08:41:08Z</time>
      </trkpt>
      <trkpt lat="44.06946" lon="7.1514">
        <ele>819.66</ele>
        <time>2017-07-27T08:41:21Z</time>
      </trkpt>
      <trkpt lat="44.0696" lon="7.1514">
        <ele>819.18</ele>
        <time>2017-07-27T08:41:36Z</time>
      </trkpt>
      <trkpt lat="44.06966" lon="7.15154">
        <ele>818.7</ele>
        <time>2017-07-27T08:41:50Z</time>
      </trkpt>
      <trkpt lat="44.06966" lon="7.15171">
        <ele>818.7</ele>
        <time>2017-07-27T08:42:06Z</time>
      </trkpt>
      <trkpt lat="44.06965" lon="7.15186">
        <ele>820.14</ele>
        <time>2017-07-27T08:42:19Z</time>
      </trkpt>
      <trkpt lat="44.06958" lon="7.15197">
        <ele>822.06</ele>
        <time>2017-07-27T08:42:33Z</time>
      </trkpt>
      <trkpt lat="44.06951" lon="7.15205">
        <ele>823.99</ele>
        <time>2017-07-27T08:42:47Z</time>
      </trkpt>
      <trkpt lat="44.06947" lon="7.15218">
        <ele>825.91</ele>
        <time>2017-07-27T08:43:03Z</time>
      </trkpt>
      <trkpt lat="44.06938" lon="7.15229">
        <ele>828.31</ele>
        <time>2017-07-27T08:43:20Z</time>
      </trkpt>
      <trkpt lat="44.06932" lon="7.15233">
        <ele>830.24</ele>
        <time>2017-07-27T08:43:34Z</time>
      </trkpt>
      <trkpt lat="44.06924" lon="7.15232">
        <ele>831.2</ele>
        <time>2017-07-27T08:43:46Z</time>
      </trkpt>
      <trkpt lat="44.06915" lon="7.15229">
        <ele>833.12</ele>
        <time>2017-07-27T08:44:00Z</time>
      </trkpt>
      <trkpt lat="44.06907" lon="7.15233">
        <ele>834.56</ele>
        <time>2017-07-27T08:44:15Z</time>
      </trkpt>
      <trkpt lat="44.06914" lon="7.15234">
        <ele>836.48</ele>
        <time>2017-07-27T08:44:27Z</time>
      </trkpt>
      <trkpt lat="44.06924" lon="7.15239">
        <ele>838.41</ele>
        <time>2017-07-27T08:44:42Z</time>
      </trkpt>
      <trkpt lat="44.06924" lon="7.15239">
        <ele>839.37</ele>
        <time>2017-07-27T08:44:57Z</time>
      </trkpt>
      <trkpt lat="44.06926" lon="7.15247">
        <ele>840.33</ele>
        <time>2017-07-27T08:45:15Z</time>
      </trkpt>
      <trkpt lat="44.06933" lon="7.15256">
        <ele>842.73</ele>
        <time>2017-07-27T08:45:30Z</time>
      </trkpt>
      <trkpt lat="44.06938" lon="7.15266">
        <ele>845.14</ele>
        <time>2017-07-27T08:45:44Z</time>
      </trkpt>
      <trkpt lat="44.06943" lon="7.15276">
        <ele>847.54</ele>
        <time>2017-07-27T08:45:58Z</time>
      </trkpt>
      <trkpt lat="44.0695" lon="7.15282">
        <ele>849.46</ele>
        <time>2017-07-27T08:46:14Z</time>
      </trkpt>
      <trkpt lat="44.06955" lon="7.15289">
        <ele>850.9</ele>
        <time>2017-07-27T08:46:26Z</time>
      </trkpt>
      <trkpt lat="44.06959" lon="7.15295">
        <ele>852.83</ele>
        <time>2017-07-27T08:46:40Z</time>
      </trkpt>
      <trkpt lat="44.06963" lon="7.15303">
        <ele>854.75</ele>
        <time>2017-07-27T08:46:55Z</time>
      </trkpt>
      <trkpt lat="44.06967" lon="7.15312">
        <ele>856.67</ele>
        <time>2017-07-27T08:47:10Z</time>
      </trkpt>
      <trkpt lat="44.06969" lon="7.15321">
        <ele>858.11</ele>
        <time>2017-07-27T08:47:23Z</time>
      </trkpt>
      <trkpt lat="44.06971" lon="7.15324">
        <ele>858.59</ele>
        <time>2017-07-27T08:47:28Z</time>
      </trkpt>
      <trkpt lat="44.06972" lon="7.1533">
        <ele>860.52</ele>
        <time>2017-07-27T08:47:40Z</time>
      </trkpt>
      <trkpt lat="44.06977" lon="7.15338">
        <ele>861.48</ele>
        <time>2017-07-27T08:47:51Z</time>
      </trkpt>
      <trkpt lat="44.06984" lon="7.15349">
        <ele>863.88</ele>
        <time>2017-07-27T08:48:04Z</time>
      </trkpt>
      <trkpt lat="44.06989" lon="7.15359">
        <ele>865.32</ele>
        <time>2017-07-27T08:48:18Z</time>
      </trkpt>
      <trkpt lat="44.06993" lon="7.15371">
        <ele>867.73</ele>
        <time>2017-07-27T08:48:33Z</time>
      </trkpt>
      <trkpt lat="44.06995" lon="7.15377">
        <ele>869.17</ele>
        <time>2017-07-27T08:48:48Z</time>
      </trkpt>
      <trkpt lat="44.07" lon="7.15387">
        <ele>871.57</ele>
        <time>2017-07-27T08:49:02Z</time>
      </trkpt>
      <trkpt lat="44.07005" lon="7.15395">
        <ele>873.01</ele>
        <time>2017-07-27T08:49:16Z</time>
      </trkpt>
      <trkpt lat="44.07008" lon="7.154">
        <ele>874.94</ele>
        <time>2017-07-27T08:49:28Z</time>
      </trkpt>
      <trkpt lat="44.07011" lon="7.15411">
        <ele>876.86</ele>
        <time>2017-07-27T08:49:43Z</time>
      </trkpt>
      <trkpt lat="44.07014" lon="7.15422">
        <ele>878.78</ele>
        <time>2017-07-27T08:49:57Z</time>
      </trkpt>
      <trkpt lat="44.07016" lon="7.15432">
        <ele>881.67</ele>
        <time>2017-07-27T08:50:13Z</time>
      </trkpt>
      <trkpt lat="44.07019" lon="7.15437">
        <ele>881.67</ele>
        <time>2017-07-27T08:50:27Z</time>
      </trkpt>
      <trkpt lat="44.07022" lon="7.1544">
        <ele>882.15</ele>
        <time>2017-07-27T08:50:46Z</time>
      </trkpt>
      <trkpt lat="44.07025" lon="7.1544">
        <ele>882.63</ele>
        <time>2017-07-27T08:51:04Z</time>
      </trkpt>
      <trkpt lat="44.07023" lon="7.15439">
        <ele>882.63</ele>
        <time>2017-07-27T08:51:24Z</time>
      </trkpt>
      <trkpt lat="44.0702" lon="7.1544">
        <ele>882.63</ele>
        <time>2017-07-27T08:51:46Z</time>
      </trkpt>
      <trkpt lat="44.07024" lon="7.15443">
        <ele>882.63</ele>
        <time>2017-07-27T08:52:02Z</time>
      </trkpt>
      <trkpt lat="44.0702" lon="7.15446">
        <ele>882.63</ele>
        <time>2017-07-27T08:52:21Z</time>
      </trkpt>
      <trkpt lat="44.07009" lon="7.15454">
        <ele>885.03</ele>
        <time>2017-07-27T08:52:37Z</time>
      </trkpt>
      <trkpt lat="44.06999" lon="7.15463">
        <ele>886.95</ele>
        <time>2017-07-27T08:52:52Z</time>
      </trkpt>
      <trkpt lat="44.06989" lon="7.1548">
        <ele>888.88</ele>
        <time>2017-07-27T08:53:05Z</time>
      </trkpt>
      <trkpt lat="44.06982" lon="7.15496">
        <ele>889.36</ele>
        <time>2017-07-27T08:53:18Z</time>
      </trkpt>
      <trkpt lat="44.06978" lon="7.15507">
        <ele>890.32</ele>
        <time>2017-07-27T08:53:33Z</time>
      </trkpt>
      <trkpt lat="44.06971" lon="7.15525">
        <ele>891.76</ele>
        <time>2017-07-27T08:53:47Z</time>
      </trkpt>
      <trkpt lat="44.06968" lon="7.1554">
        <ele>893.2</ele>
        <time>2017-07-27T08:54:01Z</time>
      </trkpt>
      <trkpt lat="44.06964" lon="7.15552">
        <ele>895.12</ele>
        <time>2017-07-27T08:54:13Z</time>
      </trkpt>
      <trkpt lat="44.0696" lon="7.15569">
        <ele>896.57</ele>
        <time>2017-07-27T08:54:30Z</time>
      </trkpt>
      <trkpt lat="44.06955" lon="7.15588">
        <ele>898.49</ele>
        <time>2017-07-27T08:54:45Z</time>
      </trkpt>
      <trkpt lat="44.0695" lon="7.15602">
        <ele>901.37</ele>
        <time>2017-07-27T08:55:01Z</time>
      </trkpt>
      <trkpt lat="44.06946" lon="7.15611">
        <ele>903.3</ele>
        <time>2017-07-27T08:55:14Z</time>
      </trkpt>
      <trkpt lat="44.06942" lon="7.1562">
        <ele>905.7</ele>
        <time>2017-07-27T08:55:29Z</time>
      </trkpt>
      <trkpt lat="44.06943" lon="7.15636">
        <ele>907.62</ele>
        <time>2017-07-27T08:55:44Z</time>
      </trkpt>
      <trkpt lat="44.06939" lon="7.1565">
        <ele>909.54</ele>
        <time>2017-07-27T08:55:59Z</time>
      </trkpt>
      <trkpt lat="44.06936" lon="7.15659">
        <ele>911.95</ele>
        <time>2017-07-27T08:56:13Z</time>
      </trkpt>
      <trkpt lat="44.06933" lon="7.15671">
        <ele>914.35</ele>
        <time>2017-07-27T08:56:28Z</time>
      </trkpt>
      <trkpt lat="44.06932" lon="7.15683">
        <ele>916.27</ele>
        <time>2017-07-27T08:56:43Z</time>
      </trkpt>
      <trkpt lat="44.06933" lon="7.15694">
        <ele>918.2</ele>
        <time>2017-07-27T08:56:57Z</time>
      </trkpt>
      <trkpt lat="44.06934" lon="7.1571">
        <ele>921.56</ele>
        <time>2017-07-27T08:57:15Z</time>
      </trkpt>
      <trkpt lat="44.06933" lon="7.15722">
        <ele>923</ele>
        <time>2017-07-27T08:57:30Z</time>
      </trkpt>
      <trkpt lat="44.06932" lon="7.15734">
        <ele>925.41</ele>
        <time>2017-07-27T08:57:44Z</time>
      </trkpt>
      <trkpt lat="44.06935" lon="7.15748">
        <ele>927.81</ele>
        <time>2017-07-27T08:58:01Z</time>
      </trkpt>
      <trkpt lat="44.06936" lon="7.15755">
        <ele>929.25</ele>
        <time>2017-07-27T08:58:17Z</time>
      </trkpt>
      <trkpt lat="44.06931" lon="7.15754">
        <ele>929.25</ele>
        <time>2017-07-27T08:58:44Z</time>
      </trkpt>
      <trkpt lat="44.0693" lon="7.15761">
        <ele>928.77</ele>
        <time>2017-07-27T08:59:02Z</time>
      </trkpt>
      <trkpt lat="44.06929" lon="7.1577">
        <ele>931.17</ele>
        <time>2017-07-27T08:59:16Z</time>
      </trkpt>
      <trkpt lat="44.06924" lon="7.1578">
        <ele>933.58</ele>
        <time>2017-07-27T08:59:31Z</time>
      </trkpt>
      <trkpt lat="44.06921" lon="7.1579">
        <ele>935.98</ele>
        <time>2017-07-27T08:59:45Z</time>
      </trkpt>
      <trkpt lat="44.06916" lon="7.15803">
        <ele>937.9</ele>
        <time>2017-07-27T08:59:59Z</time>
      </trkpt>
      <trkpt lat="44.06916" lon="7.15804">
        <ele>937.9</ele>
        <time>2017-07-27T09:00:00Z</time>
      </trkpt>
      <trkpt lat="44.06912" lon="7.15819">
        <ele>939.35</ele>
        <time>2017-07-27T09:00:14Z</time>
      </trkpt>
      <trkpt lat="44.0691" lon="7.15824">
        <ele>939.83</ele>
        <time>2017-07-27T09:00:31Z</time>
      </trkpt>
      <trkpt lat="44.06907" lon="7.15838">
        <ele>940.79</ele>
        <time>2017-07-27T09:00:47Z</time>
      </trkpt>
      <trkpt lat="44.06905" lon="7.15856">
        <ele>942.71</ele>
        <time>2017-07-27T09:01:02Z</time>
      </trkpt>
      <trkpt lat="44.06905" lon="7.15875">
        <ele>944.63</ele>
        <time>2017-07-27T09:01:19Z</time>
      </trkpt>
      <trkpt lat="44.06906" lon="7.15892">
        <ele>945.11</ele>
        <time>2017-07-27T09:01:34Z</time>
      </trkpt>
      <trkpt lat="44.0691" lon="7.15907">
        <ele>947.04</ele>
        <time>2017-07-27T09:01:48Z</time>
      </trkpt>
      <trkpt lat="44.06913" lon="7.15924">
        <ele>948</ele>
        <time>2017-07-27T09:02:03Z</time>
      </trkpt>
      <trkpt lat="44.06918" lon="7.15939">
        <ele>949.44</ele>
        <time>2017-07-27T09:02:18Z</time>
      </trkpt>
      <trkpt lat="44.0692" lon="7.15954">
        <ele>950.4</ele>
        <time>2017-07-27T09:02:30Z</time>
      </trkpt>
      <trkpt lat="44.06922" lon="7.15969">
        <ele>951.36</ele>
        <time>2017-07-27T09:02:43Z</time>
      </trkpt>
      <trkpt lat="44.06923" lon="7.15986">
        <ele>952.8</ele>
        <time>2017-07-27T09:02:58Z</time>
      </trkpt>
      <trkpt lat="44.06928" lon="7.16002">
        <ele>954.25</ele>
        <time>2017-07-27T09:03:12Z</time>
      </trkpt>
      <trkpt lat="44.0693" lon="7.16019">
        <ele>956.17</ele>
        <time>2017-07-27T09:03:28Z</time>
      </trkpt>
      <trkpt lat="44.0693" lon="7.1604">
        <ele>957.61</ele>
        <time>2017-07-27T09:03:45Z</time>
      </trkpt>
      <trkpt lat="44.0693" lon="7.16064">
        <ele>959.05</ele>
        <time>2017-07-27T09:04:02Z</time>
      </trkpt>
      <trkpt lat="44.0693" lon="7.16083">
        <ele>960.49</ele>
        <time>2017-07-27T09:04:16Z</time>
      </trkpt>
      <trkpt lat="44.0693" lon="7.16101">
        <ele>961.94</ele>
        <time>2017-07-27T09:04:30Z</time>
      </trkpt>
      <trkpt lat="44.06929" lon="7.16119">
        <ele>962.9</ele>
        <time>2017-07-27T09:04:44Z</time>
      </trkpt>
      <trkpt lat="44.0693" lon="7.16138">
        <ele>964.34</ele>
        <time>2017-07-27T09:05:00Z</time>
      </trkpt>
      <trkpt lat="44.06929" lon="7.16149">
        <ele>965.3</ele>
        <time>2017-07-27T09:05:13Z</time>
      </trkpt>
      <trkpt lat="44.0693" lon="7.16151">
        <ele>965.3</ele>
        <time>2017-07-27T09:05:28Z</time>
      </trkpt>
      <trkpt lat="44.06928" lon="7.16156">
        <ele>965.3</ele>
        <time>2017-07-27T09:05:41Z</time>
      </trkpt>
      <trkpt lat="44.06928" lon="7.16156">
        <ele>961.46</ele>
        <time>2017-07-27T09:05:54Z</time>
      </trkpt>
      <trkpt lat="44.06928" lon="7.16157">
        <ele>968.67</ele>
        <time>2017-07-27T09:05:55Z</time>
      </trkpt>
      <trkpt lat="44.06928" lon="7.16157">
        <ele>965.3</ele>
        <time>2017-07-27T09:05:56Z</time>
      </trkpt>
      <trkpt lat="44.06925" lon="7.16172">
        <ele>965.3</ele>
        <time>2017-07-27T09:06:12Z</time>
      </trkpt>
      <trkpt lat="44.06925" lon="7.16174">
        <ele>966.74</ele>
        <time>2017-07-27T09:06:14Z</time>
      </trkpt>
      <trkpt lat="44.06923" lon="7.16185">
        <ele>967.22</ele>
        <time>2017-07-27T09:06:24Z</time>
      </trkpt>
      <trkpt lat="44.06922" lon="7.16203">
        <ele>968.67</ele>
        <time>2017-07-27T09:06:38Z</time>
      </trkpt>
      <trkpt lat="44.06922" lon="7.16206">
        <ele>968.67</ele>
        <time>2017-07-27T09:06:41Z</time>
      </trkpt>
      <trkpt lat="44.06919" lon="7.16224">
        <ele>970.11</ele>
        <time>2017-07-27T09:06:55Z</time>
      </trkpt>
      <trkpt lat="44.06916" lon="7.16242">
        <ele>971.55</ele>
        <time>2017-07-27T09:07:10Z</time>
      </trkpt>
      <trkpt lat="44.06915" lon="7.16248">
        <ele>972.03</ele>
        <time>2017-07-27T09:07:15Z</time>
      </trkpt>
      <trkpt lat="44.0691" lon="7.16267">
        <ele>973.47</ele>
        <time>2017-07-27T09:07:31Z</time>
      </trkpt>
      <trkpt lat="44.06906" lon="7.16283">
        <ele>974.43</ele>
        <time>2017-07-27T09:07:46Z</time>
      </trkpt>
      <trkpt lat="44.06899" lon="7.16302">
        <ele>975.39</ele>
        <time>2017-07-27T09:08:02Z</time>
      </trkpt>
      <trkpt lat="44.06898" lon="7.16325">
        <ele>976.36</ele>
        <time>2017-07-27T09:08:19Z</time>
      </trkpt>
      <trkpt lat="44.06898" lon="7.16329">
        <ele>976.84</ele>
        <time>2017-07-27T09:08:22Z</time>
      </trkpt>
      <trkpt lat="44.06902" lon="7.16348">
        <ele>977.32</ele>
        <time>2017-07-27T09:08:37Z</time>
      </trkpt>
      <trkpt lat="44.06902" lon="7.16362">
        <ele>978.28</ele>
        <time>2017-07-27T09:08:49Z</time>
      </trkpt>
      <trkpt lat="44.069" lon="7.16381">
        <ele>978.76</ele>
        <time>2017-07-27T09:09:04Z</time>
      </trkpt>
      <trkpt lat="44.06899" lon="7.164">
        <ele>979.72</ele>
        <time>2017-07-27T09:09:20Z</time>
      </trkpt>
      <trkpt lat="44.06899" lon="7.16419">
        <ele>980.2</ele>
        <time>2017-07-27T09:09:36Z</time>
      </trkpt>
      <trkpt lat="44.06898" lon="7.16438">
        <ele>981.64</ele>
        <time>2017-07-27T09:09:52Z</time>
      </trkpt>
      <trkpt lat="44.06897" lon="7.16459">
        <ele>983.09</ele>
        <time>2017-07-27T09:10:09Z</time>
      </trkpt>
      <trkpt lat="44.06896" lon="7.1648">
        <ele>984.05</ele>
        <time>2017-07-27T09:10:25Z</time>
      </trkpt>
      <trkpt lat="44.069" lon="7.16498">
        <ele>985.49</ele>
        <time>2017-07-27T09:10:40Z</time>
      </trkpt>
      <trkpt lat="44.06906" lon="7.16509">
        <ele>986.45</ele>
        <time>2017-07-27T09:10:54Z</time>
      </trkpt>
      <trkpt lat="44.0691" lon="7.16519">
        <ele>986.93</ele>
        <time>2017-07-27T09:11:08Z</time>
      </trkpt>
      <trkpt lat="44.06913" lon="7.16534">
        <ele>988.37</ele>
        <time>2017-07-27T09:11:23Z</time>
      </trkpt>
      <trkpt lat="44.06912" lon="7.16537">
        <ele>988.85</ele>
        <time>2017-07-27T09:11:44Z</time>
      </trkpt>
      <trkpt lat="44.06913" lon="7.16549">
        <ele>989.81</ele>
        <time>2017-07-27T09:11:57Z</time>
      </trkpt>
      <trkpt lat="44.06913" lon="7.1656">
        <ele>990.3</ele>
        <time>2017-07-27T09:12:06Z</time>
      </trkpt>
      <trkpt lat="44.06916" lon="7.1658">
        <ele>992.22</ele>
        <time>2017-07-27T09:12:22Z</time>
      </trkpt>
      <trkpt lat="44.06917" lon="7.16597">
        <ele>993.66</ele>
        <time>2017-07-27T09:12:37Z</time>
      </trkpt>
      <trkpt lat="44.06918" lon="7.16609">
        <ele>995.1</ele>
        <time>2017-07-27T09:12:50Z</time>
      </trkpt>
      <trkpt lat="44.06916" lon="7.16619">
        <ele>994.62</ele>
        <time>2017-07-27T09:13:04Z</time>
      </trkpt>
      <trkpt lat="44.06914" lon="7.16637">
        <ele>994.62</ele>
        <time>2017-07-27T09:13:21Z</time>
      </trkpt>
      <trkpt lat="44.06907" lon="7.16657">
        <ele>995.1</ele>
        <time>2017-07-27T09:13:36Z</time>
      </trkpt>
      <trkpt lat="44.06903" lon="7.16667">
        <ele>995.58</ele>
        <time>2017-07-27T09:13:50Z</time>
      </trkpt>
      <trkpt lat="44.06899" lon="7.1668">
        <ele>995.58</ele>
        <time>2017-07-27T09:14:03Z</time>
      </trkpt>
      <trkpt lat="44.06894" lon="7.16698">
        <ele>996.06</ele>
        <time>2017-07-27T09:14:18Z</time>
      </trkpt>
      <trkpt lat="44.06892" lon="7.16706">
        <ele>997.02</ele>
        <time>2017-07-27T09:14:25Z</time>
      </trkpt>
      <trkpt lat="44.06889" lon="7.16724">
        <ele>998.47</ele>
        <time>2017-07-27T09:14:40Z</time>
      </trkpt>
      <trkpt lat="44.06887" lon="7.16744">
        <ele>999.43</ele>
        <time>2017-07-27T09:14:56Z</time>
      </trkpt>
      <trkpt lat="44.06882" lon="7.16763">
        <ele>1000.39</ele>
        <time>2017-07-27T09:15:13Z</time>
      </trkpt>
      <trkpt lat="44.0688" lon="7.16781">
        <ele>1002.31</ele>
        <time>2017-07-27T09:15:30Z</time>
      </trkpt>
      <trkpt lat="44.06878" lon="7.16797">
        <ele>1003.27</ele>
        <time>2017-07-27T09:15:44Z</time>
      </trkpt>
      <trkpt lat="44.0688" lon="7.16816">
        <ele>1003.75</ele>
        <time>2017-07-27T09:15:58Z</time>
      </trkpt>
      <trkpt lat="44.0688" lon="7.16833">
        <ele>1003.75</ele>
        <time>2017-07-27T09:16:13Z</time>
      </trkpt>
      <trkpt lat="44.0688" lon="7.16848">
        <ele>1003.75</ele>
        <time>2017-07-27T09:16:27Z</time>
      </trkpt>
      <trkpt lat="44.06882" lon="7.16866">
        <ele>1004.72</ele>
        <time>2017-07-27T09:16:43Z</time>
      </trkpt>
      <trkpt lat="44.06883" lon="7.16883">
        <ele>1007.6</ele>
        <time>2017-07-27T09:17:00Z</time>
      </trkpt>
      <trkpt lat="44.06888" lon="7.16898">
        <ele>1009.52</ele>
        <time>2017-07-27T09:17:17Z</time>
      </trkpt>
      <trkpt lat="44.06892" lon="7.16905">
        <ele>1010</ele>
        <time>2017-07-27T09:17:34Z</time>
      </trkpt>
      <trkpt lat="44.06893" lon="7.16919">
        <ele>1010.96</ele>
        <time>2017-07-27T09:17:48Z</time>
      </trkpt>
      <trkpt lat="44.06893" lon="7.16933">
        <ele>1012.41</ele>
        <time>2017-07-27T09:18:02Z</time>
      </trkpt>
      <trkpt lat="44.06894" lon="7.16952">
        <ele>1013.85</ele>
        <time>2017-07-27T09:18:19Z</time>
      </trkpt>
      <trkpt lat="44.06897" lon="7.16971">
        <ele>1015.29</ele>
        <time>2017-07-27T09:18:34Z</time>
      </trkpt>
      <trkpt lat="44.06899" lon="7.16987">
        <ele>1016.73</ele>
        <time>2017-07-27T09:18:47Z</time>
      </trkpt>
      <trkpt lat="44.069" lon="7.17003">
        <ele>1018.17</ele>
        <time>2017-07-27T09:19:01Z</time>
      </trkpt>
      <trkpt lat="44.069" lon="7.17021">
        <ele>1019.62</ele>
        <time>2017-07-27T09:19:17Z</time>
      </trkpt>
      <trkpt lat="44.069" lon="7.17037">
        <ele>1021.54</ele>
        <time>2017-07-27T09:19:34Z</time>
      </trkpt>
      <trkpt lat="44.06901" lon="7.17052">
        <ele>1023.46</ele>
        <time>2017-07-27T09:19:49Z</time>
      </trkpt>
      <trkpt lat="44.06901" lon="7.17066">
        <ele>1024.9</ele>
        <time>2017-07-27T09:20:03Z</time>
      </trkpt>
      <trkpt lat="44.06901" lon="7.17077">
        <ele>1026.34</ele>
        <time>2017-07-27T09:20:16Z</time>
      </trkpt>
      <trkpt lat="44.06902" lon="7.17078">
        <ele>1026.34</ele>
        <time>2017-07-27T09:20:28Z</time>
      </trkpt>
      <trkpt lat="44.06902" lon="7.17081">
        <ele>1026.34</ele>
        <time>2017-07-27T09:20:45Z</time>
      </trkpt>
      <trkpt lat="44.06903" lon="7.17082">
        <ele>1026.34</ele>
        <time>2017-07-27T09:21:02Z</time>
      </trkpt>
      <trkpt lat="44.06901" lon="7.17078">
        <ele>1026.83</ele>
        <time>2017-07-27T09:21:22Z</time>
      </trkpt>
      <trkpt lat="44.06901" lon="7.17078">
        <ele>1026.83</ele>
        <time>2017-07-27T09:21:49Z</time>
      </trkpt>
      <trkpt lat="44.069" lon="7.17077">
        <ele>1026.83</ele>
        <time>2017-07-27T09:22:11Z</time>
      </trkpt>
      <trkpt lat="44.069" lon="7.17078">
        <ele>1027.31</ele>
        <time>2017-07-27T09:22:39Z</time>
      </trkpt>
      <trkpt lat="44.069" lon="7.17079">
        <ele>1027.31</ele>
        <time>2017-07-27T09:23:01Z</time>
      </trkpt>
      <trkpt lat="44.069" lon="7.17076">
        <ele>1027.31</ele>
        <time>2017-07-27T09:23:28Z</time>
      </trkpt>
      <trkpt lat="44.06901" lon="7.17077">
        <ele>1027.31</ele>
        <time>2017-07-27T09:23:57Z</time>
      </trkpt>
      <trkpt lat="44.06899" lon="7.17078">
        <ele>1027.31</ele>
        <time>2017-07-27T09:24:30Z</time>
      </trkpt>
      <trkpt lat="44.06899" lon="7.17078">
        <ele>1027.31</ele>
        <time>2017-07-27T09:24:56Z</time>
      </trkpt>
      <trkpt lat="44.06899" lon="7.17083">
        <ele>1028.27</ele>
        <time>2017-07-27T09:25:15Z</time>
      </trkpt>
      <trkpt lat="44.06899" lon="7.17087">
        <ele>1028.27</ele>
        <time>2017-07-27T09:25:48Z</time>
      </trkpt>
      <trkpt lat="44.06896" lon="7.17092">
        <ele>1028.27</ele>
        <time>2017-07-27T09:26:05Z</time>
      </trkpt>
      <trkpt lat="44.06897" lon="7.17096">
        <ele>1029.23</ele>
        <time>2017-07-27T09:26:11Z</time>
      </trkpt>
      <trkpt lat="44.06899" lon="7.17106">
        <ele>1031.15</ele>
        <time>2017-07-27T09:26:23Z</time>
      </trkpt>
      <trkpt lat="44.069" lon="7.17112">
        <ele>1032.11</ele>
        <time>2017-07-27T09:26:36Z</time>
      </trkpt>
      <trkpt lat="44.06898" lon="7.17128">
        <ele>1032.59</ele>
        <time>2017-07-27T09:26:55Z</time>
      </trkpt>
      <trkpt lat="44.06897" lon="7.17125">
        <ele>1033.07</ele>
        <time>2017-07-27T09:27:16Z</time>
      </trkpt>
      <trkpt lat="44.069" lon="7.17128">
        <ele>1033.07</ele>
        <time>2017-07-27T09:27:39Z</time>
      </trkpt>
      <trkpt lat="44.06903" lon="7.17127">
        <ele>1033.07</ele>
        <time>2017-07-27T09:28:11Z</time>
      </trkpt>
      <trkpt lat="44.06903" lon="7.17127">
        <ele>1032.11</ele>
        <time>2017-07-27T09:28:36Z</time>
      </trkpt>
      <trkpt lat="44.069" lon="7.17128">
        <ele>1032.11</ele>
        <time>2017-07-27T09:29:01Z</time>
      </trkpt>
      <trkpt lat="44.06898" lon="7.1713">
        <ele>1032.11</ele>
        <time>2017-07-27T09:29:39Z</time>
      </trkpt>
      <trkpt lat="44.06899" lon="7.17131">
        <ele>1032.11</ele>
        <time>2017-07-27T09:30:03Z</time>
      </trkpt>
      <trkpt lat="44.06902" lon="7.17126">
        <ele>1032.11</ele>
        <time>2017-07-27T09:30:35Z</time>
      </trkpt>
      <trkpt lat="44.069" lon="7.17127">
        <ele>1032.11</ele>
        <time>2017-07-27T09:31:10Z</time>
      </trkpt>
      <trkpt lat="44.069" lon="7.1713">
        <ele>1032.11</ele>
        <time>2017-07-27T09:31:43Z</time>
      </trkpt>
      <trkpt lat="44.069" lon="7.17128">
        <ele>1032.11</ele>
        <time>2017-07-27T09:32:11Z</time>
      </trkpt>
      <trkpt lat="44.06901" lon="7.17127">
        <ele>1032.59</ele>
        <time>2017-07-27T09:32:44Z</time>
      </trkpt>
      <trkpt lat="44.069" lon="7.17129">
        <ele>1032.59</ele>
        <time>2017-07-27T09:33:19Z</time>
      </trkpt>
      <trkpt lat="44.06899" lon="7.1713">
        <ele>1032.59</ele>
        <time>2017-07-27T09:33:47Z</time>
      </trkpt>
      <trkpt lat="44.06899" lon="7.17131">
        <ele>1032.11</ele>
        <time>2017-07-27T09:34:12Z</time>
      </trkpt>
      <trkpt lat="44.06899" lon="7.17132">
        <ele>1032.11</ele>
        <time>2017-07-27T09:34:52Z</time>
      </trkpt>
      <trkpt lat="44.06899" lon="7.1713">
        <ele>1032.11</ele>
        <time>2017-07-27T09:35:22Z</time>
      </trkpt>
      <trkpt lat="44.069" lon="7.17129">
        <ele>1032.11</ele>
        <time>2017-07-27T09:35:55Z</time>
      </trkpt>
      <trkpt lat="44.06898" lon="7.17127">
        <ele>1033.55</ele>
        <time>2017-07-27T09:36:29Z</time>
      </trkpt>
      <trkpt lat="44.06898" lon="7.17128">
        <ele>1033.55</ele>
        <time>2017-07-27T09:36:56Z</time>
      </trkpt>
      <trkpt lat="44.069" lon="7.17128">
        <ele>1033.55</ele>
        <time>2017-07-27T09:37:27Z</time>
      </trkpt>
      <trkpt lat="44.069" lon="7.17127">
        <ele>1033.55</ele>
        <time>2017-07-27T09:37:59Z</time>
      </trkpt>
      <trkpt lat="44.06899" lon="7.17129">
        <ele>1033.55</ele>
        <time>2017-07-27T09:38:21Z</time>
      </trkpt>
      <trkpt lat="44.06899" lon="7.17126">
        <ele>1033.55</ele>
        <time>2017-07-27T09:38:47Z</time>
      </trkpt>
      <trkpt lat="44.06899" lon="7.17125">
        <ele>1033.55</ele>
        <time>2017-07-27T09:39:09Z</time>
      </trkpt>
      <trkpt lat="44.069" lon="7.17127">
        <ele>1033.55</ele>
        <time>2017-07-27T09:39:41Z</time>
      </trkpt>
      <trkpt lat="44.06901" lon="7.17126">
        <ele>1033.55</ele>
        <time>2017-07-27T09:40:07Z</time>
      </trkpt>
      <trkpt lat="44.06903" lon="7.17126">
        <ele>1033.55</ele>
        <time>2017-07-27T09:40:43Z</time>
      </trkpt>
      <trkpt lat="44.06898" lon="7.17125">
        <ele>1033.55</ele>
        <time>2017-07-27T09:41:24Z</time>
      </trkpt>
      <trkpt lat="44.06897" lon="7.17129">
        <ele>1033.55</ele>
        <time>2017-07-27T09:41:58Z</time>
      </trkpt>
      <trkpt lat="44.06899" lon="7.17129">
        <ele>1033.55</ele>
        <time>2017-07-27T09:42:26Z</time>
      </trkpt>
      <trkpt lat="44.069" lon="7.17127">
        <ele>1033.55</ele>
        <time>2017-07-27T09:43:04Z</time>
      </trkpt>
      <trkpt lat="44.06901" lon="7.17125">
        <ele>1033.55</ele>
        <time>2017-07-27T09:43:40Z</time>
      </trkpt>
      <trkpt lat="44.06898" lon="7.17126">
        <ele>1033.55</ele>
        <time>2017-07-27T09:44:10Z</time>
      </trkpt>
      <trkpt lat="44.06901" lon="7.17127">
        <ele>1033.55</ele>
        <time>2017-07-27T09:44:49Z</time>
      </trkpt>
      <trkpt lat="44.06901" lon="7.17124">
        <ele>1033.55</ele>
        <time>2017-07-27T09:45:32Z</time>
      </trkpt>
      <trkpt lat="44.06899" lon="7.17127">
        <ele>1033.55</ele>
        <time>2017-07-27T09:46:02Z</time>
      </trkpt>
      <trkpt lat="44.06899" lon="7.17125">
        <ele>1033.55</ele>
        <time>2017-07-27T09:46:41Z</time>
      </trkpt>
      <trkpt lat="44.06899" lon="7.17128">
        <ele>1033.55</ele>
        <time>2017-07-27T09:47:11Z</time>
      </trkpt>
      <trkpt lat="44.069" lon="7.17129">
        <ele>1034.52</ele>
        <time>2017-07-27T09:47:29Z</time>
      </trkpt>
      <trkpt lat="44.06899" lon="7.17129">
        <ele>1034.52</ele>
        <time>2017-07-27T09:47:44Z</time>
      </trkpt>
      <trkpt lat="44.06903" lon="7.17129">
        <ele>1034.04</ele>
        <time>2017-07-27T09:48:08Z</time>
      </trkpt>
      <trkpt lat="44.069" lon="7.17139">
        <ele>1034.04</ele>
        <time>2017-07-27T09:48:22Z</time>
      </trkpt>
      <trkpt lat="44.069" lon="7.17153">
        <ele>1034.04</ele>
        <time>2017-07-27T09:48:38Z</time>
      </trkpt>
      <trkpt lat="44.06898" lon="7.17164">
        <ele>1035.48</ele>
        <time>2017-07-27T09:48:55Z</time>
      </trkpt>
      <trkpt lat="44.06898" lon="7.17167">
        <ele>1035.48</ele>
        <time>2017-07-27T09:49:07Z</time>
      </trkpt>
      <trkpt lat="44.06899" lon="7.17157">
        <ele>1035.48</ele>
        <time>2017-07-27T09:49:16Z</time>
      </trkpt>
      <trkpt lat="44.06898" lon="7.17136">
        <ele>1035.48</ele>
        <time>2017-07-27T09:49:34Z</time>
      </trkpt>
      <trkpt lat="44.06899" lon="7.17115">
        <ele>1034.04</ele>
        <time>2017-07-27T09:49:52Z</time>
      </trkpt>
      <trkpt lat="44.06896" lon="7.17115">
        <ele>1033.55</ele>
        <time>2017-07-27T09:50:04Z</time>
      </trkpt>
      <trkpt lat="44.06894" lon="7.17128">
        <ele>1032.11</ele>
        <time>2017-07-27T09:50:18Z</time>
      </trkpt>
      <trkpt lat="44.0689" lon="7.17143">
        <ele>1030.19</ele>
        <time>2017-07-27T09:50:33Z</time>
      </trkpt>
      <trkpt lat="44.06887" lon="7.17144">
        <ele>1029.71</ele>
        <time>2017-07-27T09:50:36Z</time>
      </trkpt>
      <trkpt lat="44.06878" lon="7.17133">
        <ele>1029.23</ele>
        <time>2017-07-27T09:50:51Z</time>
      </trkpt>
      <trkpt lat="44.06874" lon="7.17124">
        <ele>1028.75</ele>
        <time>2017-07-27T09:51:03Z</time>
      </trkpt>
      <trkpt lat="44.06866" lon="7.17111">
        <ele>1028.75</ele>
        <time>2017-07-27T09:51:18Z</time>
      </trkpt>
      <trkpt lat="44.06857" lon="7.17099">
        <ele>1030.19</ele>
        <time>2017-07-27T09:51:33Z</time>
      </trkpt>
      <trkpt lat="44.06845" lon="7.17085">
        <ele>1030.19</ele>
        <time>2017-07-27T09:51:49Z</time>
      </trkpt>
      <trkpt lat="44.0683" lon="7.1708">
        <ele>1031.63</ele>
        <time>2017-07-27T09:52:05Z</time>
      </trkpt>
      <trkpt lat="44.06814" lon="7.17083">
        <ele>1031.63</ele>
        <time>2017-07-27T09:52:22Z</time>
      </trkpt>
      <trkpt lat="44.06799" lon="7.17087">
        <ele>1031.63</ele>
        <time>2017-07-27T09:52:37Z</time>
      </trkpt>
      <trkpt lat="44.06785" lon="7.17094">
        <ele>1032.11</ele>
        <time>2017-07-27T09:52:52Z</time>
      </trkpt>
      <trkpt lat="44.0677" lon="7.17098">
        <ele>1032.11</ele>
        <time>2017-07-27T09:53:06Z</time>
      </trkpt>
      <trkpt lat="44.0676" lon="7.17104">
        <ele>1030.67</ele>
        <time>2017-07-27T09:53:19Z</time>
      </trkpt>
      <trkpt lat="44.06746" lon="7.17108">
        <ele>1028.27</ele>
        <time>2017-07-27T09:53:34Z</time>
      </trkpt>
      <trkpt lat="44.06731" lon="7.17119">
        <ele>1025.86</ele>
        <time>2017-07-27T09:53:51Z</time>
      </trkpt>
      <trkpt lat="44.0672" lon="7.17128">
        <ele>1025.86</ele>
        <time>2017-07-27T09:54:05Z</time>
      </trkpt>
      <trkpt lat="44.06706" lon="7.17128">
        <ele>1024.9</ele>
        <time>2017-07-27T09:54:19Z</time>
      </trkpt>
      <trkpt lat="44.06693" lon="7.17127">
        <ele>1024.9</ele>
        <time>2017-07-27T09:54:33Z</time>
      </trkpt>
      <trkpt lat="44.06684" lon="7.17136">
        <ele>1024.9</ele>
        <time>2017-07-27T09:54:44Z</time>
      </trkpt>
      <trkpt lat="44.06679" lon="7.1716">
        <ele>1024.9</ele>
        <time>2017-07-27T09:55:01Z</time>
      </trkpt>
      <trkpt lat="44.0667" lon="7.17179">
        <ele>1022.02</ele>
        <time>2017-07-27T09:55:18Z</time>
      </trkpt>
      <trkpt lat="44.06668" lon="7.17182">
        <ele>1021.54</ele>
        <time>2017-07-27T09:55:20Z</time>
      </trkpt>
      <trkpt lat="44.06661" lon="7.17202">
        <ele>1020.1</ele>
        <time>2017-07-27T09:55:36Z</time>
      </trkpt>
      <trkpt lat="44.06652" lon="7.17226">
        <ele>1020.1</ele>
        <time>2017-07-27T09:55:51Z</time>
      </trkpt>
      <trkpt lat="44.06646" lon="7.17246">
        <ele>1020.1</ele>
        <time>2017-07-27T09:56:07Z</time>
      </trkpt>
      <trkpt lat="44.06637" lon="7.17259">
        <ele>1017.21</ele>
        <time>2017-07-27T09:56:23Z</time>
      </trkpt>
      <trkpt lat="44.0663" lon="7.17259">
        <ele>1016.25</ele>
        <time>2017-07-27T09:56:39Z</time>
      </trkpt>
      <trkpt lat="44.06621" lon="7.17257">
        <ele>1015.29</ele>
        <time>2017-07-27T09:56:54Z</time>
      </trkpt>
      <trkpt lat="44.06619" lon="7.1725">
        <ele>1014.33</ele>
        <time>2017-07-27T09:57:08Z</time>
      </trkpt>
      <trkpt lat="44.06615" lon="7.17247">
        <ele>1014.33</ele>
        <time>2017-07-27T09:57:25Z</time>
      </trkpt>
      <trkpt lat="44.06608" lon="7.17247">
        <ele>1012.89</ele>
        <time>2017-07-27T09:57:42Z</time>
      </trkpt>
      <trkpt lat="44.06593" lon="7.17248">
        <ele>1011.44</ele>
        <time>2017-07-27T09:57:56Z</time>
      </trkpt>
      <trkpt lat="44.06586" lon="7.17247">
        <ele>1010.48</ele>
        <time>2017-07-27T09:58:05Z</time>
      </trkpt>
      <trkpt lat="44.06574" lon="7.17241">
        <ele>1010</ele>
        <time>2017-07-27T09:58:19Z</time>
      </trkpt>
      <trkpt lat="44.06559" lon="7.17227">
        <ele>1009.52</ele>
        <time>2017-07-27T09:58:35Z</time>
      </trkpt>
      <trkpt lat="44.06552" lon="7.17223">
        <ele>1009.52</ele>
        <time>2017-07-27T09:58:48Z</time>
      </trkpt>
      <trkpt lat="44.06547" lon="7.17223">
        <ele>1009.52</ele>
        <time>2017-07-27T09:58:52Z</time>
      </trkpt>
      <trkpt lat="44.06537" lon="7.17225">
        <ele>1009.52</ele>
        <time>2017-07-27T09:59:05Z</time>
      </trkpt>
      <trkpt lat="44.06529" lon="7.17233">
        <ele>1010</ele>
        <time>2017-07-27T09:59:19Z</time>
      </trkpt>
      <trkpt lat="44.06518" lon="7.17239">
        <ele>1010</ele>
        <time>2017-07-27T09:59:33Z</time>
      </trkpt>
      <trkpt lat="44.0651" lon="7.17245">
        <ele>1011.44</ele>
        <time>2017-07-27T09:59:47Z</time>
      </trkpt>
      <trkpt lat="44.06504" lon="7.17247">
        <ele>1012.41</ele>
        <time>2017-07-27T10:00:00Z</time>
      </trkpt>
      <trkpt lat="44.065" lon="7.17242">
        <ele>1014.33</ele>
        <time>2017-07-27T10:00:12Z</time>
      </trkpt>
      <trkpt lat="44.06497" lon="7.17243">
        <ele>1016.25</ele>
        <time>2017-07-27T10:00:27Z</time>
      </trkpt>
      <trkpt lat="44.06497" lon="7.17243">
        <ele>1013.37</ele>
        <time>2017-07-27T10:00:31Z</time>
      </trkpt>
      <trkpt lat="44.06497" lon="7.17243">
        <ele>1016.73</ele>
        <time>2017-07-27T10:00:32Z</time>
      </trkpt>
      <trkpt lat="44.06498" lon="7.17242">
        <ele>1014.81</ele>
        <time>2017-07-27T10:00:47Z</time>
      </trkpt>
      <trkpt lat="44.06498" lon="7.17242">
        <ele>1018.65</ele>
        <time>2017-07-27T10:00:48Z</time>
      </trkpt>
      <trkpt lat="44.06497" lon="7.17242">
        <ele>1016.25</ele>
        <time>2017-07-27T10:00:50Z</time>
      </trkpt>
      <trkpt lat="44.06489" lon="7.17242">
        <ele>1019.13</ele>
        <time>2017-07-27T10:01:06Z</time>
      </trkpt>
      <trkpt lat="44.0649" lon="7.17234">
        <ele>1021.06</ele>
        <time>2017-07-27T10:01:23Z</time>
      </trkpt>
      <trkpt lat="44.06484" lon="7.17231">
        <ele>1022.02</ele>
        <time>2017-07-27T10:01:41Z</time>
      </trkpt>
      <trkpt lat="44.06478" lon="7.17232">
        <ele>1023.46</ele>
        <time>2017-07-27T10:01:54Z</time>
      </trkpt>
      <trkpt lat="44.06476" lon="7.1723">
        <ele>1024.9</ele>
        <time>2017-07-27T10:02:08Z</time>
      </trkpt>
      <trkpt lat="44.06481" lon="7.17224">
        <ele>1027.31</ele>
        <time>2017-07-27T10:02:22Z</time>
      </trkpt>
      <trkpt lat="44.06486" lon="7.17214">
        <ele>1028.75</ele>
        <time>2017-07-27T10:02:36Z</time>
      </trkpt>
      <trkpt lat="44.06482" lon="7.17211">
        <ele>1029.71</ele>
        <time>2017-07-27T10:02:51Z</time>
      </trkpt>
      <trkpt lat="44.06475" lon="7.17211">
        <ele>1031.63</ele>
        <time>2017-07-27T10:03:06Z</time>
      </trkpt>
      <trkpt lat="44.06468" lon="7.1721">
        <ele>1033.07</ele>
        <time>2017-07-27T10:03:19Z</time>
      </trkpt>
      <trkpt lat="44.06459" lon="7.17208">
        <ele>1034.52</ele>
        <time>2017-07-27T10:03:35Z</time>
      </trkpt>
      <trkpt lat="44.06453" lon="7.17207">
        <ele>1035.96</ele>
        <time>2017-07-27T10:03:49Z</time>
      </trkpt>
      <trkpt lat="44.06446" lon="7.17206">
        <ele>1037.88</ele>
        <time>2017-07-27T10:04:05Z</time>
      </trkpt>
      <trkpt lat="44.06437" lon="7.17198">
        <ele>1039.8</ele>
        <time>2017-07-27T10:04:22Z</time>
      </trkpt>
      <trkpt lat="44.06429" lon="7.17192">
        <ele>1042.21</ele>
        <time>2017-07-27T10:04:39Z</time>
      </trkpt>
      <trkpt lat="44.06424" lon="7.17189">
        <ele>1044.13</ele>
        <time>2017-07-27T10:04:53Z</time>
      </trkpt>
      <trkpt lat="44.06416" lon="7.17182">
        <ele>1047.01</ele>
        <time>2017-07-27T10:05:10Z</time>
      </trkpt>
      <trkpt lat="44.06411" lon="7.17167">
        <ele>1048.45</ele>
        <time>2017-07-27T10:05:29Z</time>
      </trkpt>
      <trkpt lat="44.06418" lon="7.17165">
        <ele>1048.94</ele>
        <time>2017-07-27T10:05:41Z</time>
      </trkpt>
      <trkpt lat="44.06438" lon="7.17173">
        <ele>1049.9</ele>
        <time>2017-07-27T10:05:58Z</time>
      </trkpt>
      <trkpt lat="44.06445" lon="7.17176">
        <ele>1051.34</ele>
        <time>2017-07-27T10:06:12Z</time>
      </trkpt>
      <trkpt lat="44.0644" lon="7.17167">
        <ele>1052.78</ele>
        <time>2017-07-27T10:06:27Z</time>
      </trkpt>
      <trkpt lat="44.06436" lon="7.17162">
        <ele>1054.22</ele>
        <time>2017-07-27T10:06:40Z</time>
      </trkpt>
      <trkpt lat="44.06428" lon="7.17153">
        <ele>1056.63</ele>
        <time>2017-07-27T10:06:57Z</time>
      </trkpt>
      <trkpt lat="44.06421" lon="7.17146">
        <ele>1058.55</ele>
        <time>2017-07-27T10:07:13Z</time>
      </trkpt>
      <trkpt lat="44.06415" lon="7.17137">
        <ele>1060.47</ele>
        <time>2017-07-27T10:07:29Z</time>
      </trkpt>
      <trkpt lat="44.06408" lon="7.17128">
        <ele>1062.39</ele>
        <time>2017-07-27T10:07:46Z</time>
      </trkpt>
      <trkpt lat="44.06409" lon="7.17122">
        <ele>1064.8</ele>
        <time>2017-07-27T10:08:01Z</time>
      </trkpt>
      <trkpt lat="44.06417" lon="7.17124">
        <ele>1066.24</ele>
        <time>2017-07-27T10:08:14Z</time>
      </trkpt>
      <trkpt lat="44.06416" lon="7.17114">
        <ele>1068.16</ele>
        <time>2017-07-27T10:08:30Z</time>
      </trkpt>
      <trkpt lat="44.0641" lon="7.17108">
        <ele>1069.12</ele>
        <time>2017-07-27T10:08:44Z</time>
      </trkpt>
      <trkpt lat="44.06405" lon="7.17099">
        <ele>1071.05</ele>
        <time>2017-07-27T10:08:59Z</time>
      </trkpt>
      <trkpt lat="44.06397" lon="7.17089">
        <ele>1072.97</ele>
        <time>2017-07-27T10:09:15Z</time>
      </trkpt>
      <trkpt lat="44.06389" lon="7.17081">
        <ele>1073.93</ele>
        <time>2017-07-27T10:09:29Z</time>
      </trkpt>
      <trkpt lat="44.06383" lon="7.17073">
        <ele>1076.33</ele>
        <time>2017-07-27T10:09:45Z</time>
      </trkpt>
      <trkpt lat="44.06376" lon="7.17062">
        <ele>1078.26</ele>
        <time>2017-07-27T10:10:01Z</time>
      </trkpt>
      <trkpt lat="44.06378" lon="7.17059">
        <ele>1080.66</ele>
        <time>2017-07-27T10:10:17Z</time>
      </trkpt>
      <trkpt lat="44.06395" lon="7.17061">
        <ele>1082.1</ele>
        <time>2017-07-27T10:10:33Z</time>
      </trkpt>
      <trkpt lat="44.06403" lon="7.17061">
        <ele>1083.06</ele>
        <time>2017-07-27T10:10:47Z</time>
      </trkpt>
      <trkpt lat="44.064" lon="7.17053">
        <ele>1084.99</ele>
        <time>2017-07-27T10:11:04Z</time>
      </trkpt>
      <trkpt lat="44.06391" lon="7.17041">
        <ele>1086.91</ele>
        <time>2017-07-27T10:11:22Z</time>
      </trkpt>
      <trkpt lat="44.06387" lon="7.17036">
        <ele>1088.35</ele>
        <time>2017-07-27T10:11:36Z</time>
      </trkpt>
      <trkpt lat="44.06382" lon="7.17026">
        <ele>1090.27</ele>
        <time>2017-07-27T10:11:51Z</time>
      </trkpt>
      <trkpt lat="44.06379" lon="7.17018">
        <ele>1091.23</ele>
        <time>2017-07-27T10:12:04Z</time>
      </trkpt>
      <trkpt lat="44.06376" lon="7.1701">
        <ele>1091.23</ele>
        <time>2017-07-27T10:12:23Z</time>
      </trkpt>
      <trkpt lat="44.06373" lon="7.17001">
        <ele>1092.68</ele>
        <time>2017-07-27T10:12:38Z</time>
      </trkpt>
      <trkpt lat="44.0637" lon="7.16996">
        <ele>1093.64</ele>
        <time>2017-07-27T10:12:45Z</time>
      </trkpt>
      <trkpt lat="44.06363" lon="7.16985">
        <ele>1095.56</ele>
        <time>2017-07-27T10:13:02Z</time>
      </trkpt>
      <trkpt lat="44.06363" lon="7.16975">
        <ele>1097</ele>
        <time>2017-07-27T10:13:15Z</time>
      </trkpt>
      <trkpt lat="44.06363" lon="7.16963">
        <ele>1098.92</ele>
        <time>2017-07-27T10:13:29Z</time>
      </trkpt>
      <trkpt lat="44.06362" lon="7.1695">
        <ele>1100.85</ele>
        <time>2017-07-27T10:13:46Z</time>
      </trkpt>
      <trkpt lat="44.06356" lon="7.16938">
        <ele>1102.29</ele>
        <time>2017-07-27T10:14:01Z</time>
      </trkpt>
      <trkpt lat="44.06351" lon="7.16932">
        <ele>1103.73</ele>
        <time>2017-07-27T10:14:16Z</time>
      </trkpt>
      <trkpt lat="44.06345" lon="7.16925">
        <ele>1104.69</ele>
        <time>2017-07-27T10:14:29Z</time>
      </trkpt>
      <trkpt lat="44.06336" lon="7.1692">
        <ele>1106.61</ele>
        <time>2017-07-27T10:14:45Z</time>
      </trkpt>
      <trkpt lat="44.0633" lon="7.16911">
        <ele>1108.06</ele>
        <time>2017-07-27T10:14:57Z</time>
      </trkpt>
      <trkpt lat="44.06325" lon="7.16906">
        <ele>1109.98</ele>
        <time>2017-07-27T10:15:10Z</time>
      </trkpt>
      <trkpt lat="44.06318" lon="7.169">
        <ele>1111.42</ele>
        <time>2017-07-27T10:15:24Z</time>
      </trkpt>
      <trkpt lat="44.0631" lon="7.16893">
        <ele>1112.38</ele>
        <time>2017-07-27T10:15:38Z</time>
      </trkpt>
      <trkpt lat="44.06307" lon="7.16894">
        <ele>1113.34</ele>
        <time>2017-07-27T10:15:55Z</time>
      </trkpt>
      <trkpt lat="44.06306" lon="7.16896">
        <ele>1113.82</ele>
        <time>2017-07-27T10:16:14Z</time>
      </trkpt>
      <trkpt lat="44.06306" lon="7.16893">
        <ele>1114.31</ele>
        <time>2017-07-27T10:16:33Z</time>
      </trkpt>
      <trkpt lat="44.06305" lon="7.16891">
        <ele>1114.31</ele>
        <time>2017-07-27T10:16:50Z</time>
      </trkpt>
      <trkpt lat="44.063" lon="7.16886">
        <ele>1114.31</ele>
        <time>2017-07-27T10:17:04Z</time>
      </trkpt>
      <trkpt lat="44.06294" lon="7.16898">
        <ele>1115.75</ele>
        <time>2017-07-27T10:17:19Z</time>
      </trkpt>
      <trkpt lat="44.06292" lon="7.1691">
        <ele>1117.19</ele>
        <time>2017-07-27T10:17:33Z</time>
      </trkpt>
      <trkpt lat="44.06291" lon="7.16928">
        <ele>1118.15</ele>
        <time>2017-07-27T10:17:50Z</time>
      </trkpt>
      <trkpt lat="44.06289" lon="7.16945">
        <ele>1119.11</ele>
        <time>2017-07-27T10:18:07Z</time>
      </trkpt>
      <trkpt lat="44.0629" lon="7.16963">
        <ele>1119.59</ele>
        <time>2017-07-27T10:18:22Z</time>
      </trkpt>
      <trkpt lat="44.06289" lon="7.16984">
        <ele>1119.59</ele>
        <time>2017-07-27T10:18:38Z</time>
      </trkpt>
      <trkpt lat="44.06287" lon="7.17003">
        <ele>1119.59</ele>
        <time>2017-07-27T10:18:55Z</time>
      </trkpt>
      <trkpt lat="44.06284" lon="7.17022">
        <ele>1120.55</ele>
        <time>2017-07-27T10:19:09Z</time>
      </trkpt>
      <trkpt lat="44.06282" lon="7.17044">
        <ele>1122.48</ele>
        <time>2017-07-27T10:19:24Z</time>
      </trkpt>
      <trkpt lat="44.0628" lon="7.17064">
        <ele>1123.44</ele>
        <time>2017-07-27T10:19:40Z</time>
      </trkpt>
      <trkpt lat="44.06278" lon="7.17075">
        <ele>1123.44</ele>
        <time>2017-07-27T10:19:55Z</time>
      </trkpt>
      <trkpt lat="44.06276" lon="7.17094">
        <ele>1123.44</ele>
        <time>2017-07-27T10:20:10Z</time>
      </trkpt>
      <trkpt lat="44.06276" lon="7.17117">
        <ele>1121.52</ele>
        <time>2017-07-27T10:20:27Z</time>
      </trkpt>
      <trkpt lat="44.06274" lon="7.17141">
        <ele>1121.03</ele>
        <time>2017-07-27T10:20:43Z</time>
      </trkpt>
      <trkpt lat="44.06273" lon="7.17152">
        <ele>1120.55</ele>
        <time>2017-07-27T10:21:00Z</time>
      </trkpt>
      <trkpt lat="44.06272" lon="7.17171">
        <ele>1119.59</ele>
        <time>2017-07-27T10:21:15Z</time>
      </trkpt>
      <trkpt lat="44.0627" lon="7.17194">
        <ele>1118.63</ele>
        <time>2017-07-27T10:21:33Z</time>
      </trkpt>
      <trkpt lat="44.0627" lon="7.17195">
        <ele>1118.63</ele>
        <time>2017-07-27T10:21:34Z</time>
      </trkpt>
      <trkpt lat="44.06268" lon="7.17217">
        <ele>1118.15</ele>
        <time>2017-07-27T10:21:50Z</time>
      </trkpt>
      <trkpt lat="44.0627" lon="7.17234">
        <ele>1116.71</ele>
        <time>2017-07-27T10:22:05Z</time>
      </trkpt>
      <trkpt lat="44.06272" lon="7.17259">
        <ele>1115.27</ele>
        <time>2017-07-27T10:22:22Z</time>
      </trkpt>
      <trkpt lat="44.06271" lon="7.17281">
        <ele>1113.82</ele>
        <time>2017-07-27T10:22:39Z</time>
      </trkpt>
      <trkpt lat="44.06272" lon="7.173">
        <ele>1112.38</ele>
        <time>2017-07-27T10:22:54Z</time>
      </trkpt>
      <trkpt lat="44.06273" lon="7.17317">
        <ele>1110.94</ele>
        <time>2017-07-27T10:23:08Z</time>
      </trkpt>
      <trkpt lat="44.06275" lon="7.17338">
        <ele>1109.5</ele>
        <time>2017-07-27T10:23:23Z</time>
      </trkpt>
      <trkpt lat="44.06274" lon="7.1736">
        <ele>1108.54</ele>
        <time>2017-07-27T10:23:36Z</time>
      </trkpt>
      <trkpt lat="44.06276" lon="7.17387">
        <ele>1104.69</ele>
        <time>2017-07-27T10:23:55Z</time>
      </trkpt>
      <trkpt lat="44.06276" lon="7.17389">
        <ele>1109.98</ele>
        <time>2017-07-27T10:23:56Z</time>
      </trkpt>
      <trkpt lat="44.06277" lon="7.17395">
        <ele>1107.1</ele>
        <time>2017-07-27T10:24:01Z</time>
      </trkpt>
      <trkpt lat="44.0628" lon="7.17418">
        <ele>1106.13</ele>
        <time>2017-07-27T10:24:16Z</time>
      </trkpt>
      <trkpt lat="44.06281" lon="7.17445">
        <ele>1105.17</ele>
        <time>2017-07-27T10:24:33Z</time>
      </trkpt>
      <trkpt lat="44.0628" lon="7.17456">
        <ele>1104.69</ele>
        <time>2017-07-27T10:24:40Z</time>
      </trkpt>
      <trkpt lat="44.06278" lon="7.1746">
        <ele>1104.69</ele>
        <time>2017-07-27T10:24:43Z</time>
      </trkpt>
      <trkpt lat="44.06275" lon="7.17465">
        <ele>1103.73</ele>
        <time>2017-07-27T10:24:48Z</time>
      </trkpt>
      <trkpt lat="44.06267" lon="7.17481">
        <ele>1102.77</ele>
        <time>2017-07-27T10:25:04Z</time>
      </trkpt>
      <trkpt lat="44.06267" lon="7.17497">
        <ele>1102.77</ele>
        <time>2017-07-27T10:25:17Z</time>
      </trkpt>
      <trkpt lat="44.06267" lon="7.1751">
        <ele>1102.29</ele>
        <time>2017-07-27T10:25:25Z</time>
      </trkpt>
      <trkpt lat="44.06253" lon="7.17533">
        <ele>1100.85</ele>
        <time>2017-07-27T10:25:45Z</time>
      </trkpt>
      <trkpt lat="44.06233" lon="7.17545">
        <ele>1099.4</ele>
        <time>2017-07-27T10:26:05Z</time>
      </trkpt>
      <trkpt lat="44.06219" lon="7.17558">
        <ele>1097.96</ele>
        <time>2017-07-27T10:26:21Z</time>
      </trkpt>
      <trkpt lat="44.06202" lon="7.17568">
        <ele>1096.04</ele>
        <time>2017-07-27T10:26:39Z</time>
      </trkpt>
      <trkpt lat="44.06186" lon="7.17575">
        <ele>1094.6</ele>
        <time>2017-07-27T10:26:56Z</time>
      </trkpt>
      <trkpt lat="44.06175" lon="7.17584">
        <ele>1092.2</ele>
        <time>2017-07-27T10:27:12Z</time>
      </trkpt>
      <trkpt lat="44.06174" lon="7.17593">
        <ele>1092.2</ele>
        <time>2017-07-27T10:27:16Z</time>
      </trkpt>
      <trkpt lat="44.06174" lon="7.17612">
        <ele>1095.56</ele>
        <time>2017-07-27T10:27:27Z</time>
      </trkpt>
      <trkpt lat="44.06175" lon="7.17613">
        <ele>1091.71</ele>
        <time>2017-07-27T10:27:28Z</time>
      </trkpt>
      <trkpt lat="44.06183" lon="7.17629">
        <ele>1090.75</ele>
        <time>2017-07-27T10:27:41Z</time>
      </trkpt>
      <trkpt lat="44.06185" lon="7.17632">
        <ele>1090.75</ele>
        <time>2017-07-27T10:27:43Z</time>
      </trkpt>
      <trkpt lat="44.0619" lon="7.17639">
        <ele>1090.27</ele>
        <time>2017-07-27T10:27:48Z</time>
      </trkpt>
      <trkpt lat="44.06202" lon="7.17655">
        <ele>1089.31</ele>
        <time>2017-07-27T10:28:04Z</time>
      </trkpt>
      <trkpt lat="44.06203" lon="7.17659">
        <ele>1089.31</ele>
        <time>2017-07-27T10:28:06Z</time>
      </trkpt>
      <trkpt lat="44.06205" lon="7.17662">
        <ele>1089.31</ele>
        <time>2017-07-27T10:28:08Z</time>
      </trkpt>
      <trkpt lat="44.06203" lon="7.17673">
        <ele>1089.31</ele>
        <time>2017-07-27T10:28:16Z</time>
      </trkpt>
      <trkpt lat="44.062" lon="7.17692">
        <ele>1088.35</ele>
        <time>2017-07-27T10:28:30Z</time>
      </trkpt>
      <trkpt lat="44.06202" lon="7.17715">
        <ele>1088.35</ele>
        <time>2017-07-27T10:28:45Z</time>
      </trkpt>
      <trkpt lat="44.06206" lon="7.1774">
        <ele>1088.35</ele>
        <time>2017-07-27T10:29:01Z</time>
      </trkpt>
      <trkpt lat="44.06213" lon="7.1776">
        <ele>1088.35</ele>
        <time>2017-07-27T10:29:18Z</time>
      </trkpt>
      <trkpt lat="44.06209" lon="7.17781">
        <ele>1087.87</ele>
        <time>2017-07-27T10:29:32Z</time>
      </trkpt>
      <trkpt lat="44.06206" lon="7.17798">
        <ele>1087.39</ele>
        <time>2017-07-27T10:29:46Z</time>
      </trkpt>
      <trkpt lat="44.06203" lon="7.17813">
        <ele>1086.91</ele>
        <time>2017-07-27T10:30:01Z</time>
      </trkpt>
      <trkpt lat="44.06205" lon="7.17819">
        <ele>1086.91</ele>
        <time>2017-07-27T10:30:23Z</time>
      </trkpt>
      <trkpt lat="44.06203" lon="7.17817">
        <ele>1086.91</ele>
        <time>2017-07-27T10:30:43Z</time>
      </trkpt>
      <trkpt lat="44.06205" lon="7.17814">
        <ele>1086.43</ele>
        <time>2017-07-27T10:31:12Z</time>
      </trkpt>
      <trkpt lat="44.06208" lon="7.17816">
        <ele>1086.91</ele>
        <time>2017-07-27T10:31:54Z</time>
      </trkpt>
      <trkpt lat="44.06203" lon="7.17818">
        <ele>1086.91</ele>
        <time>2017-07-27T10:32:39Z</time>
      </trkpt>
      <trkpt lat="44.06205" lon="7.17817">
        <ele>1088.83</ele>
        <time>2017-07-27T10:32:44Z</time>
      </trkpt>
      <trkpt lat="44.06203" lon="7.17817">
        <ele>1087.39</ele>
        <time>2017-07-27T10:33:06Z</time>
      </trkpt>
      <trkpt lat="44.06201" lon="7.17816">
        <ele>1087.39</ele>
        <time>2017-07-27T10:33:31Z</time>
      </trkpt>
      <trkpt lat="44.06204" lon="7.17815">
        <ele>1087.87</ele>
        <time>2017-07-27T10:34:06Z</time>
      </trkpt>
      <trkpt lat="44.06207" lon="7.17816">
        <ele>1087.87</ele>
        <time>2017-07-27T10:34:45Z</time>
      </trkpt>
      <trkpt lat="44.06208" lon="7.17818">
        <ele>1088.35</ele>
        <time>2017-07-27T10:35:28Z</time>
      </trkpt>
      <trkpt lat="44.06207" lon="7.17819">
        <ele>1088.35</ele>
        <time>2017-07-27T10:36:09Z</time>
      </trkpt>
      <trkpt lat="44.06203" lon="7.17817">
        <ele>1088.35</ele>
        <time>2017-07-27T10:36:48Z</time>
      </trkpt>
      <trkpt lat="44.06201" lon="7.17818">
        <ele>1088.83</ele>
        <time>2017-07-27T10:37:30Z</time>
      </trkpt>
      <trkpt lat="44.06211" lon="7.17816">
        <ele>1088.83</ele>
        <time>2017-07-27T10:38:11Z</time>
      </trkpt>
      <trkpt lat="44.06203" lon="7.17812">
        <ele>1090.27</ele>
        <time>2017-07-27T10:38:50Z</time>
      </trkpt>
      <trkpt lat="44.06203" lon="7.17815">
        <ele>1090.27</ele>
        <time>2017-07-27T10:39:25Z</time>
      </trkpt>
      <trkpt lat="44.06206" lon="7.17818">
        <ele>1090.27</ele>
        <time>2017-07-27T10:40:06Z</time>
      </trkpt>
      <trkpt lat="44.06208" lon="7.17819">
        <ele>1090.27</ele>
        <time>2017-07-27T10:40:46Z</time>
      </trkpt>
      <trkpt lat="44.06206" lon="7.17813">
        <ele>1090.75</ele>
        <time>2017-07-27T10:41:33Z</time>
      </trkpt>
      <trkpt lat="44.06204" lon="7.1782">
        <ele>1090.75</ele>
        <time>2017-07-27T10:42:14Z</time>
      </trkpt>
      <trkpt lat="44.06201" lon="7.17817">
        <ele>1090.75</ele>
        <time>2017-07-27T10:42:44Z</time>
      </trkpt>
      <trkpt lat="44.06202" lon="7.17814">
        <ele>1091.23</ele>
        <time>2017-07-27T10:43:30Z</time>
      </trkpt>
      <trkpt lat="44.06201" lon="7.17818">
        <ele>1091.23</ele>
        <time>2017-07-27T10:44:08Z</time>
      </trkpt>
      <trkpt lat="44.06197" lon="7.17816">
        <ele>1091.23</ele>
        <time>2017-07-27T10:44:52Z</time>
      </trkpt>
      <trkpt lat="44.062" lon="7.1782">
        <ele>1091.23</ele>
        <time>2017-07-27T10:45:36Z</time>
      </trkpt>
      <trkpt lat="44.06198" lon="7.1782">
        <ele>1091.71</ele>
        <time>2017-07-27T10:46:14Z</time>
      </trkpt>
      <trkpt lat="44.06203" lon="7.17815">
        <ele>1091.71</ele>
        <time>2017-07-27T10:46:54Z</time>
      </trkpt>
      <trkpt lat="44.06204" lon="7.17815">
        <ele>1092.2</ele>
        <time>2017-07-27T10:47:27Z</time>
      </trkpt>
      <trkpt lat="44.06204" lon="7.17816">
        <ele>1092.2</ele>
        <time>2017-07-27T10:48:12Z</time>
      </trkpt>
      <trkpt lat="44.06202" lon="7.17817">
        <ele>1092.2</ele>
        <time>2017-07-27T10:48:51Z</time>
      </trkpt>
      <trkpt lat="44.06201" lon="7.1782">
        <ele>1092.2</ele>
        <time>2017-07-27T10:49:27Z</time>
      </trkpt>
      <trkpt lat="44.06201" lon="7.17815">
        <ele>1092.2</ele>
        <time>2017-07-27T10:50:07Z</time>
      </trkpt>
      <trkpt lat="44.06201" lon="7.17818">
        <ele>1092.2</ele>
        <time>2017-07-27T10:50:41Z</time>
      </trkpt>
      <trkpt lat="44.06203" lon="7.17818">
        <ele>1092.2</ele>
        <time>2017-07-27T10:51:20Z</time>
      </trkpt>
      <trkpt lat="44.06203" lon="7.1782">
        <ele>1092.68</ele>
        <time>2017-07-27T10:51:58Z</time>
      </trkpt>
      <trkpt lat="44.06199" lon="7.1782">
        <ele>1093.16</ele>
        <time>2017-07-27T10:52:38Z</time>
      </trkpt>
      <trkpt lat="44.06201" lon="7.17817">
        <ele>1093.16</ele>
        <time>2017-07-27T10:53:20Z</time>
      </trkpt>
      <trkpt lat="44.06204" lon="7.17819">
        <ele>1093.64</ele>
        <time>2017-07-27T10:54:08Z</time>
      </trkpt>
      <trkpt lat="44.06205" lon="7.17818">
        <ele>1093.64</ele>
        <time>2017-07-27T10:54:44Z</time>
      </trkpt>
      <trkpt lat="44.06205" lon="7.1782">
        <ele>1093.64</ele>
        <time>2017-07-27T10:55:31Z</time>
      </trkpt>
      <trkpt lat="44.06207" lon="7.17823">
        <ele>1094.12</ele>
        <time>2017-07-27T10:56:10Z</time>
      </trkpt>
      <trkpt lat="44.06202" lon="7.17819">
        <ele>1094.6</ele>
        <time>2017-07-27T10:56:52Z</time>
      </trkpt>
      <trkpt lat="44.062" lon="7.1782">
        <ele>1094.6</ele>
        <time>2017-07-27T10:57:25Z</time>
      </trkpt>
      <trkpt lat="44.06201" lon="7.17817">
        <ele>1094.6</ele>
        <time>2017-07-27T10:58:01Z</time>
      </trkpt>
      <trkpt lat="44.06203" lon="7.17819">
        <ele>1095.08</ele>
        <time>2017-07-27T10:58:41Z</time>
      </trkpt>
      <trkpt lat="44.06202" lon="7.17818">
        <ele>1095.08</ele>
        <time>2017-07-27T10:59:17Z</time>
      </trkpt>
      <trkpt lat="44.06202" lon="7.17813">
        <ele>1095.08</ele>
        <time>2017-07-27T10:59:52Z</time>
      </trkpt>
      <trkpt lat="44.06199" lon="7.17822">
        <ele>1095.08</ele>
        <time>2017-07-27T11:00:28Z</time>
      </trkpt>
      <trkpt lat="44.06201" lon="7.17817">
        <ele>1095.08</ele>
        <time>2017-07-27T11:01:11Z</time>
      </trkpt>
      <trkpt lat="44.062" lon="7.17819">
        <ele>1095.08</ele>
        <time>2017-07-27T11:01:50Z</time>
      </trkpt>
      <trkpt lat="44.062" lon="7.17819">
        <ele>1095.08</ele>
        <time>2017-07-27T11:02:27Z</time>
      </trkpt>
      <trkpt lat="44.06201" lon="7.17823">
        <ele>1095.56</ele>
        <time>2017-07-27T11:03:10Z</time>
      </trkpt>
      <trkpt lat="44.062" lon="7.17818">
        <ele>1095.56</ele>
        <time>2017-07-27T11:03:50Z</time>
      </trkpt>
      <trkpt lat="44.06202" lon="7.1782">
        <ele>1095.56</ele>
        <time>2017-07-27T11:04:30Z</time>
      </trkpt>
      <trkpt lat="44.06199" lon="7.17821">
        <ele>1095.56</ele>
        <time>2017-07-27T11:04:52Z</time>
      </trkpt>
      <trkpt lat="44.06201" lon="7.17814">
        <ele>1095.56</ele>
        <time>2017-07-27T11:05:33Z</time>
      </trkpt>
      <trkpt lat="44.06198" lon="7.17816">
        <ele>1095.56</ele>
        <time>2017-07-27T11:05:59Z</time>
      </trkpt>
      <trkpt lat="44.06201" lon="7.17817">
        <ele>1096.04</ele>
        <time>2017-07-27T11:06:34Z</time>
      </trkpt>
      <trkpt lat="44.06202" lon="7.17819">
        <ele>1096.04</ele>
        <time>2017-07-27T11:07:14Z</time>
      </trkpt>
      <trkpt lat="44.06205" lon="7.1782">
        <ele>1096.04</ele>
        <time>2017-07-27T11:07:33Z</time>
      </trkpt>
      <trkpt lat="44.06203" lon="7.17819">
        <ele>1096.04</ele>
        <time>2017-07-27T11:07:53Z</time>
      </trkpt>
      <trkpt lat="44.062" lon="7.17819">
        <ele>1096.04</ele>
        <time>2017-07-27T11:08:12Z</time>
      </trkpt>
      <trkpt lat="44.06203" lon="7.17827">
        <ele>1096.04</ele>
        <time>2017-07-27T11:08:24Z</time>
      </trkpt>
      <trkpt lat="44.062" lon="7.1784">
        <ele>1095.56</ele>
        <time>2017-07-27T11:08:37Z</time>
      </trkpt>
      <trkpt lat="44.06197" lon="7.1786">
        <ele>1094.6</ele>
        <time>2017-07-27T11:08:52Z</time>
      </trkpt>
      <trkpt lat="44.06191" lon="7.17873">
        <ele>1094.12</ele>
        <time>2017-07-27T11:09:05Z</time>
      </trkpt>
      <trkpt lat="44.06187" lon="7.17885">
        <ele>1094.12</ele>
        <time>2017-07-27T11:09:18Z</time>
      </trkpt>
      <trkpt lat="44.0618" lon="7.17897">
        <ele>1093.64</ele>
        <time>2017-07-27T11:09:32Z</time>
      </trkpt>
      <trkpt lat="44.06171" lon="7.1791">
        <ele>1093.16</ele>
        <time>2017-07-27T11:09:44Z</time>
      </trkpt>
      <trkpt lat="44.06166" lon="7.17923">
        <ele>1091.23</ele>
        <time>2017-07-27T11:09:57Z</time>
      </trkpt>
      <trkpt lat="44.06158" lon="7.17941">
        <ele>1090.75</ele>
        <time>2017-07-27T11:10:12Z</time>
      </trkpt>
      <trkpt lat="44.0615" lon="7.17958">
        <ele>1089.79</ele>
        <time>2017-07-27T11:10:29Z</time>
      </trkpt>
      <trkpt lat="44.06141" lon="7.17973">
        <ele>1089.31</ele>
        <time>2017-07-27T11:10:44Z</time>
      </trkpt>
      <trkpt lat="44.06132" lon="7.17994">
        <ele>1085.95</ele>
        <time>2017-07-27T11:10:56Z</time>
      </trkpt>
      <trkpt lat="44.06131" lon="7.17996">
        <ele>1089.79</ele>
        <time>2017-07-27T11:10:57Z</time>
      </trkpt>
      <trkpt lat="44.06128" lon="7.18013">
        <ele>1087.39</ele>
        <time>2017-07-27T11:11:09Z</time>
      </trkpt>
      <trkpt lat="44.06125" lon="7.18029">
        <ele>1086.43</ele>
        <time>2017-07-27T11:11:24Z</time>
      </trkpt>
      <trkpt lat="44.06123" lon="7.18042">
        <ele>1085.95</ele>
        <time>2017-07-27T11:11:38Z</time>
      </trkpt>
      <trkpt lat="44.06122" lon="7.18053">
        <ele>1085.47</ele>
        <time>2017-07-27T11:11:50Z</time>
      </trkpt>
      <trkpt lat="44.06122" lon="7.18069">
        <ele>1085.47</ele>
        <time>2017-07-27T11:12:03Z</time>
      </trkpt>
      <trkpt lat="44.06121" lon="7.18081">
        <ele>1084.99</ele>
        <time>2017-07-27T11:12:15Z</time>
      </trkpt>
      <trkpt lat="44.06118" lon="7.18092">
        <ele>1086.43</ele>
        <time>2017-07-27T11:12:28Z</time>
      </trkpt>
      <trkpt lat="44.06118" lon="7.18108">
        <ele>1087.39</ele>
        <time>2017-07-27T11:12:41Z</time>
      </trkpt>
      <trkpt lat="44.06113" lon="7.18133">
        <ele>1087.87</ele>
        <time>2017-07-27T11:12:56Z</time>
      </trkpt>
      <trkpt lat="44.06111" lon="7.18152">
        <ele>1088.35</ele>
        <time>2017-07-27T11:13:07Z</time>
      </trkpt>
      <trkpt lat="44.06107" lon="7.18164">
        <ele>1089.31</ele>
        <time>2017-07-27T11:13:19Z</time>
      </trkpt>
      <trkpt lat="44.06105" lon="7.18182">
        <ele>1089.79</ele>
        <time>2017-07-27T11:13:33Z</time>
      </trkpt>
      <trkpt lat="44.06101" lon="7.18202">
        <ele>1090.27</ele>
        <time>2017-07-27T11:13:47Z</time>
      </trkpt>
      <trkpt lat="44.06101" lon="7.1822">
        <ele>1090.27</ele>
        <time>2017-07-27T11:13:56Z</time>
      </trkpt>
      <trkpt lat="44.06103" lon="7.18238">
        <ele>1091.71</ele>
        <time>2017-07-27T11:14:11Z</time>
      </trkpt>
      <trkpt lat="44.06104" lon="7.1825">
        <ele>1092.2</ele>
        <time>2017-07-27T11:14:25Z</time>
      </trkpt>
      <trkpt lat="44.06101" lon="7.18261">
        <ele>1093.64</ele>
        <time>2017-07-27T11:14:38Z</time>
      </trkpt>
      <trkpt lat="44.06095" lon="7.18273">
        <ele>1094.6</ele>
        <time>2017-07-27T11:14:50Z</time>
      </trkpt>
      <trkpt lat="44.0609" lon="7.18287">
        <ele>1096.04</ele>
        <time>2017-07-27T11:15:04Z</time>
      </trkpt>
      <trkpt lat="44.06087" lon="7.18297">
        <ele>1097</ele>
        <time>2017-07-27T11:15:15Z</time>
      </trkpt>
      <trkpt lat="44.0608" lon="7.18307">
        <ele>1097.96</ele>
        <time>2017-07-27T11:15:27Z</time>
      </trkpt>
      <trkpt lat="44.06074" lon="7.18314">
        <ele>1098.92</ele>
        <time>2017-07-27T11:15:38Z</time>
      </trkpt>
      <trkpt lat="44.06066" lon="7.18327">
        <ele>1099.89</ele>
        <time>2017-07-27T11:15:51Z</time>
      </trkpt>
      <trkpt lat="44.06057" lon="7.18339">
        <ele>1101.33</ele>
        <time>2017-07-27T11:16:05Z</time>
      </trkpt>
      <trkpt lat="44.06045" lon="7.18354">
        <ele>1103.25</ele>
        <time>2017-07-27T11:16:22Z</time>
      </trkpt>
      <trkpt lat="44.06037" lon="7.18368">
        <ele>1104.21</ele>
        <time>2017-07-27T11:16:39Z</time>
      </trkpt>
      <trkpt lat="44.06031" lon="7.18385">
        <ele>1105.17</ele>
        <time>2017-07-27T11:16:54Z</time>
      </trkpt>
      <trkpt lat="44.06025" lon="7.18393">
        <ele>1106.13</ele>
        <time>2017-07-27T11:17:06Z</time>
      </trkpt>
      <trkpt lat="44.06017" lon="7.18403">
        <ele>1107.58</ele>
        <time>2017-07-27T11:17:20Z</time>
      </trkpt>
      <trkpt lat="44.06006" lon="7.18422">
        <ele>1108.54</ele>
        <time>2017-07-27T11:17:37Z</time>
      </trkpt>
      <trkpt lat="44.05999" lon="7.18433">
        <ele>1109.98</ele>
        <time>2017-07-27T11:17:49Z</time>
      </trkpt>
      <trkpt lat="44.05988" lon="7.18453">
        <ele>1111.42</ele>
        <time>2017-07-27T11:18:03Z</time>
      </trkpt>
      <trkpt lat="44.05981" lon="7.18473">
        <ele>1111.9</ele>
        <time>2017-07-27T11:18:18Z</time>
      </trkpt>
      <trkpt lat="44.05974" lon="7.18491">
        <ele>1113.34</ele>
        <time>2017-07-27T11:18:35Z</time>
      </trkpt>
      <trkpt lat="44.05966" lon="7.18509">
        <ele>1113.82</ele>
        <time>2017-07-27T11:18:50Z</time>
      </trkpt>
      <trkpt lat="44.05962" lon="7.18528">
        <ele>1115.75</ele>
        <time>2017-07-27T11:19:07Z</time>
      </trkpt>
      <trkpt lat="44.05962" lon="7.1853">
        <ele>1115.75</ele>
        <time>2017-07-27T11:19:09Z</time>
      </trkpt>
      <trkpt lat="44.05957" lon="7.18543">
        <ele>1116.71</ele>
        <time>2017-07-27T11:19:21Z</time>
      </trkpt>
      <trkpt lat="44.05955" lon="7.18558">
        <ele>1117.67</ele>
        <time>2017-07-27T11:19:35Z</time>
      </trkpt>
      <trkpt lat="44.05951" lon="7.18573">
        <ele>1118.15</ele>
        <time>2017-07-27T11:19:48Z</time>
      </trkpt>
      <trkpt lat="44.05949" lon="7.18589">
        <ele>1119.11</ele>
        <time>2017-07-27T11:20:03Z</time>
      </trkpt>
      <trkpt lat="44.0595" lon="7.18599">
        <ele>1119.59</ele>
        <time>2017-07-27T11:20:13Z</time>
      </trkpt>
      <trkpt lat="44.05952" lon="7.18613">
        <ele>1120.55</ele>
        <time>2017-07-27T11:20:24Z</time>
      </trkpt>
      <trkpt lat="44.05952" lon="7.1863">
        <ele>1122.48</ele>
        <time>2017-07-27T11:20:38Z</time>
      </trkpt>
      <trkpt lat="44.05952" lon="7.18646">
        <ele>1123.44</ele>
        <time>2017-07-27T11:20:54Z</time>
      </trkpt>
      <trkpt lat="44.05955" lon="7.18661">
        <ele>1124.4</ele>
        <time>2017-07-27T11:21:09Z</time>
      </trkpt>
      <trkpt lat="44.05953" lon="7.18673">
        <ele>1126.32</ele>
        <time>2017-07-27T11:21:23Z</time>
      </trkpt>
      <trkpt lat="44.05956" lon="7.18691">
        <ele>1126.8</ele>
        <time>2017-07-27T11:21:37Z</time>
      </trkpt>
      <trkpt lat="44.05954" lon="7.18709">
        <ele>1127.76</ele>
        <time>2017-07-27T11:21:51Z</time>
      </trkpt>
      <trkpt lat="44.05951" lon="7.18726">
        <ele>1128.73</ele>
        <time>2017-07-27T11:22:05Z</time>
      </trkpt>
      <trkpt lat="44.05954" lon="7.18744">
        <ele>1130.17</ele>
        <time>2017-07-27T11:22:18Z</time>
      </trkpt>
      <trkpt lat="44.05954" lon="7.18761">
        <ele>1131.13</ele>
        <time>2017-07-27T11:22:32Z</time>
      </trkpt>
      <trkpt lat="44.05959" lon="7.18782">
        <ele>1132.57</ele>
        <time>2017-07-27T11:22:50Z</time>
      </trkpt>
      <trkpt lat="44.05959" lon="7.188">
        <ele>1133.53</ele>
        <time>2017-07-27T11:23:05Z</time>
      </trkpt>
      <trkpt lat="44.0596" lon="7.18807">
        <ele>1134.49</ele>
        <time>2017-07-27T11:23:20Z</time>
      </trkpt>
      <trkpt lat="44.0596" lon="7.18814">
        <ele>1134.49</ele>
        <time>2017-07-27T11:23:38Z</time>
      </trkpt>
      <trkpt lat="44.05955" lon="7.18814">
        <ele>1134.97</ele>
        <time>2017-07-27T11:24:03Z</time>
      </trkpt>
      <trkpt lat="44.05956" lon="7.18812">
        <ele>1134.97</ele>
        <time>2017-07-27T11:24:38Z</time>
      </trkpt>
      <trkpt lat="44.05956" lon="7.18813">
        <ele>1134.49</ele>
        <time>2017-07-27T11:25:03Z</time>
      </trkpt>
      <trkpt lat="44.05955" lon="7.18813">
        <ele>1130.65</ele>
        <time>2017-07-27T11:25:14Z</time>
      </trkpt>
      <trkpt lat="44.05955" lon="7.18813">
        <ele>1138.82</ele>
        <time>2017-07-27T11:25:15Z</time>
      </trkpt>
      <trkpt lat="44.05956" lon="7.18814">
        <ele>1134.97</ele>
        <time>2017-07-27T11:25:16Z</time>
      </trkpt>
      <trkpt lat="44.05959" lon="7.18819">
        <ele>1134.97</ele>
        <time>2017-07-27T11:25:45Z</time>
      </trkpt>
      <trkpt lat="44.05961" lon="7.18823">
        <ele>1134.97</ele>
        <time>2017-07-27T11:26:11Z</time>
      </trkpt>
      <trkpt lat="44.05954" lon="7.18829">
        <ele>1135.45</ele>
        <time>2017-07-27T11:26:42Z</time>
      </trkpt>
      <trkpt lat="44.05949" lon="7.18831">
        <ele>1135.45</ele>
        <time>2017-07-27T11:27:13Z</time>
      </trkpt>
      <trkpt lat="44.05949" lon="7.1883">
        <ele>1135.94</ele>
        <time>2017-07-27T11:27:44Z</time>
      </trkpt>
      <trkpt lat="44.05944" lon="7.18831">
        <ele>1135.94</ele>
        <time>2017-07-27T11:28:22Z</time>
      </trkpt>
      <trkpt lat="44.0594" lon="7.18823">
        <ele>1135.94</ele>
        <time>2017-07-27T11:28:56Z</time>
      </trkpt>
      <trkpt lat="44.05937" lon="7.18829">
        <ele>1135.94</ele>
        <time>2017-07-27T11:29:17Z</time>
      </trkpt>
      <trkpt lat="44.05937" lon="7.18825">
        <ele>1135.94</ele>
        <time>2017-07-27T11:29:52Z</time>
      </trkpt>
      <trkpt lat="44.05938" lon="7.18821">
        <ele>1136.42</ele>
        <time>2017-07-27T11:30:25Z</time>
      </trkpt>
      <trkpt lat="44.05936" lon="7.18817">
        <ele>1136.42</ele>
        <time>2017-07-27T11:30:53Z</time>
      </trkpt>
      <trkpt lat="44.05941" lon="7.18816">
        <ele>1136.42</ele>
        <time>2017-07-27T11:31:27Z</time>
      </trkpt>
      <trkpt lat="44.05945" lon="7.18817">
        <ele>1136.9</ele>
        <time>2017-07-27T11:31:57Z</time>
      </trkpt>
      <trkpt lat="44.05945" lon="7.18818">
        <ele>1138.34</ele>
        <time>2017-07-27T11:32:03Z</time>
      </trkpt>
      <trkpt lat="44.05945" lon="7.18818">
        <ele>1136.9</ele>
        <time>2017-07-27T11:32:05Z</time>
      </trkpt>
      <trkpt lat="44.05955" lon="7.18801">
        <ele>1136.9</ele>
        <time>2017-07-27T11:32:34Z</time>
      </trkpt>
      <trkpt lat="44.05954" lon="7.18798">
        <ele>1136.9</ele>
        <time>2017-07-27T11:33:04Z</time>
      </trkpt>
      <trkpt lat="44.05956" lon="7.18794">
        <ele>1136.9</ele>
        <time>2017-07-27T11:33:39Z</time>
      </trkpt>
      <trkpt lat="44.05958" lon="7.18802">
        <ele>1136.9</ele>
        <time>2017-07-27T11:34:06Z</time>
      </trkpt>
      <trkpt lat="44.05956" lon="7.18803">
        <ele>1136.9</ele>
        <time>2017-07-27T11:34:46Z</time>
      </trkpt>
      <trkpt lat="44.05957" lon="7.18803">
        <ele>1136.9</ele>
        <time>2017-07-27T11:35:21Z</time>
      </trkpt>
      <trkpt lat="44.05957" lon="7.18807">
        <ele>1136.9</ele>
        <time>2017-07-27T11:36:00Z</time>
      </trkpt>
      <trkpt lat="44.05958" lon="7.18801">
        <ele>1136.9</ele>
        <time>2017-07-27T11:36:30Z</time>
      </trkpt>
      <trkpt lat="44.05958" lon="7.18803">
        <ele>1137.38</ele>
        <time>2017-07-27T11:37:05Z</time>
      </trkpt>
      <trkpt lat="44.05958" lon="7.18802">
        <ele>1137.38</ele>
        <time>2017-07-27T11:37:39Z</time>
      </trkpt>
      <trkpt lat="44.05953" lon="7.18798">
        <ele>1137.86</ele>
        <time>2017-07-27T11:38:15Z</time>
      </trkpt>
      <trkpt lat="44.05957" lon="7.18795">
        <ele>1137.86</ele>
        <time>2017-07-27T11:38:41Z</time>
      </trkpt>
      <trkpt lat="44.0596" lon="7.18799">
        <ele>1138.34</ele>
        <time>2017-07-27T11:39:08Z</time>
      </trkpt>
      <trkpt lat="44.05958" lon="7.18798">
        <ele>1138.82</ele>
        <time>2017-07-27T11:39:44Z</time>
      </trkpt>
      <trkpt lat="44.05956" lon="7.18801">
        <ele>1138.82</ele>
        <time>2017-07-27T11:40:20Z</time>
      </trkpt>
      <trkpt lat="44.05956" lon="7.18802">
        <ele>1140.26</ele>
        <time>2017-07-27T11:40:27Z</time>
      </trkpt>
      <trkpt lat="44.05961" lon="7.18806">
        <ele>1140.74</ele>
        <time>2017-07-27T11:41:00Z</time>
      </trkpt>
      <trkpt lat="44.05957" lon="7.18804">
        <ele>1144.11</ele>
        <time>2017-07-27T11:41:30Z</time>
      </trkpt>
      <trkpt lat="44.05952" lon="7.18801">
        <ele>1141.7</ele>
        <time>2017-07-27T11:41:51Z</time>
      </trkpt>
      <trkpt lat="44.05947" lon="7.18806">
        <ele>1141.7</ele>
        <time>2017-07-27T11:42:16Z</time>
      </trkpt>
      <trkpt lat="44.05948" lon="7.18827">
        <ele>1143.14</ele>
        <time>2017-07-27T11:42:30Z</time>
      </trkpt>
      <trkpt lat="44.05948" lon="7.18828">
        <ele>1143.14</ele>
        <time>2017-07-27T11:42:31Z</time>
      </trkpt>
      <trkpt lat="44.05952" lon="7.18845">
        <ele>1144.11</ele>
        <time>2017-07-27T11:42:47Z</time>
      </trkpt>
      <trkpt lat="44.05953" lon="7.18862">
        <ele>1145.07</ele>
        <time>2017-07-27T11:43:03Z</time>
      </trkpt>
      <trkpt lat="44.05955" lon="7.18878">
        <ele>1145.55</ele>
        <time>2017-07-27T11:43:18Z</time>
      </trkpt>
      <trkpt lat="44.05962" lon="7.18895">
        <ele>1146.51</ele>
        <time>2017-07-27T11:43:31Z</time>
      </trkpt>
      <trkpt lat="44.05973" lon="7.18911">
        <ele>1147.95</ele>
        <time>2017-07-27T11:43:46Z</time>
      </trkpt>
      <trkpt lat="44.05977" lon="7.18924">
        <ele>1150.35</ele>
        <time>2017-07-27T11:44:02Z</time>
      </trkpt>
      <trkpt lat="44.05988" lon="7.18934">
        <ele>1151.8</ele>
        <time>2017-07-27T11:44:17Z</time>
      </trkpt>
      <trkpt lat="44.05996" lon="7.18947">
        <ele>1152.28</ele>
        <time>2017-07-27T11:44:32Z</time>
      </trkpt>
      <trkpt lat="44.06002" lon="7.18957">
        <ele>1153.72</ele>
        <time>2017-07-27T11:44:44Z</time>
      </trkpt>
      <trkpt lat="44.06016" lon="7.18964">
        <ele>1154.2</ele>
        <time>2017-07-27T11:44:58Z</time>
      </trkpt>
      <trkpt lat="44.06028" lon="7.18971">
        <ele>1155.16</ele>
        <time>2017-07-27T11:45:11Z</time>
      </trkpt>
      <trkpt lat="44.0604" lon="7.18982">
        <ele>1156.12</ele>
        <time>2017-07-27T11:45:25Z</time>
      </trkpt>
      <trkpt lat="44.0605" lon="7.1899">
        <ele>1156.6</ele>
        <time>2017-07-27T11:45:41Z</time>
      </trkpt>
      <trkpt lat="44.06055" lon="7.18996">
        <ele>1158.53</ele>
        <time>2017-07-27T11:45:54Z</time>
      </trkpt>
      <trkpt lat="44.06068" lon="7.19003">
        <ele>1159.49</ele>
        <time>2017-07-27T11:46:09Z</time>
      </trkpt>
      <trkpt lat="44.06077" lon="7.19013">
        <ele>1160.45</ele>
        <time>2017-07-27T11:46:24Z</time>
      </trkpt>
      <trkpt lat="44.06085" lon="7.19013">
        <ele>1160.93</ele>
        <time>2017-07-27T11:46:38Z</time>
      </trkpt>
      <trkpt lat="44.06093" lon="7.19025">
        <ele>1162.37</ele>
        <time>2017-07-27T11:46:53Z</time>
      </trkpt>
      <trkpt lat="44.06095" lon="7.19043">
        <ele>1163.33</ele>
        <time>2017-07-27T11:47:10Z</time>
      </trkpt>
      <trkpt lat="44.061" lon="7.19061">
        <ele>1164.29</ele>
        <time>2017-07-27T11:47:28Z</time>
      </trkpt>
      <trkpt lat="44.06109" lon="7.19066">
        <ele>1165.26</ele>
        <time>2017-07-27T11:47:40Z</time>
      </trkpt>
      <trkpt lat="44.06118" lon="7.19077">
        <ele>1166.22</ele>
        <time>2017-07-27T11:47:56Z</time>
      </trkpt>
      <trkpt lat="44.06128" lon="7.19081">
        <ele>1167.66</ele>
        <time>2017-07-27T11:48:10Z</time>
      </trkpt>
      <trkpt lat="44.06136" lon="7.19093">
        <ele>1168.62</ele>
        <time>2017-07-27T11:48:24Z</time>
      </trkpt>
      <trkpt lat="44.06141" lon="7.19106">
        <ele>1170.06</ele>
        <time>2017-07-27T11:48:38Z</time>
      </trkpt>
      <trkpt lat="44.06148" lon="7.19115">
        <ele>1171.5</ele>
        <time>2017-07-27T11:48:51Z</time>
      </trkpt>
      <trkpt lat="44.06157" lon="7.19129">
        <ele>1172.95</ele>
        <time>2017-07-27T11:49:06Z</time>
      </trkpt>
      <trkpt lat="44.06161" lon="7.19148">
        <ele>1174.87</ele>
        <time>2017-07-27T11:49:26Z</time>
      </trkpt>
      <trkpt lat="44.06166" lon="7.19165">
        <ele>1175.35</ele>
        <time>2017-07-27T11:49:42Z</time>
      </trkpt>
      <trkpt lat="44.06167" lon="7.19187">
        <ele>1176.79</ele>
        <time>2017-07-27T11:49:58Z</time>
      </trkpt>
      <trkpt lat="44.06171" lon="7.19203">
        <ele>1177.75</ele>
        <time>2017-07-27T11:50:14Z</time>
      </trkpt>
      <trkpt lat="44.06176" lon="7.19222">
        <ele>1179.19</ele>
        <time>2017-07-27T11:50:30Z</time>
      </trkpt>
      <trkpt lat="44.06186" lon="7.19237">
        <ele>1180.64</ele>
        <time>2017-07-27T11:50:47Z</time>
      </trkpt>
      <trkpt lat="44.06189" lon="7.19256">
        <ele>1182.08</ele>
        <time>2017-07-27T11:51:04Z</time>
      </trkpt>
      <trkpt lat="44.06196" lon="7.19273">
        <ele>1183.52</ele>
        <time>2017-07-27T11:51:21Z</time>
      </trkpt>
      <trkpt lat="44.062" lon="7.19291">
        <ele>1184.48</ele>
        <time>2017-07-27T11:51:38Z</time>
      </trkpt>
      <trkpt lat="44.06209" lon="7.19305">
        <ele>1185.92</ele>
        <time>2017-07-27T11:51:54Z</time>
      </trkpt>
      <trkpt lat="44.06217" lon="7.19318">
        <ele>1187.85</ele>
        <time>2017-07-27T11:52:08Z</time>
      </trkpt>
      <trkpt lat="44.06228" lon="7.19329">
        <ele>1188.81</ele>
        <time>2017-07-27T11:52:23Z</time>
      </trkpt>
      <trkpt lat="44.06229" lon="7.19332">
        <ele>1188.81</ele>
        <time>2017-07-27T11:52:45Z</time>
      </trkpt>
      <trkpt lat="44.06234" lon="7.19333">
        <ele>1188.33</ele>
        <time>2017-07-27T11:53:05Z</time>
      </trkpt>
      <trkpt lat="44.06238" lon="7.19334">
        <ele>1187.85</ele>
        <time>2017-07-27T11:53:08Z</time>
      </trkpt>
      <trkpt lat="44.0625" lon="7.19325">
        <ele>1189.29</ele>
        <time>2017-07-27T11:53:22Z</time>
      </trkpt>
      <trkpt lat="44.06264" lon="7.19326">
        <ele>1190.25</ele>
        <time>2017-07-27T11:53:36Z</time>
      </trkpt>
      <trkpt lat="44.06275" lon="7.1934">
        <ele>1190.73</ele>
        <time>2017-07-27T11:53:49Z</time>
      </trkpt>
      <trkpt lat="44.06281" lon="7.19357">
        <ele>1191.69</ele>
        <time>2017-07-27T11:54:04Z</time>
      </trkpt>
      <trkpt lat="44.06288" lon="7.19376">
        <ele>1193.13</ele>
        <time>2017-07-27T11:54:20Z</time>
      </trkpt>
      <trkpt lat="44.06283" lon="7.19389">
        <ele>1194.58</ele>
        <time>2017-07-27T11:54:35Z</time>
      </trkpt>
      <trkpt lat="44.06281" lon="7.19402">
        <ele>1196.02</ele>
        <time>2017-07-27T11:54:50Z</time>
      </trkpt>
      <trkpt lat="44.06281" lon="7.19419">
        <ele>1197.46</ele>
        <time>2017-07-27T11:55:06Z</time>
      </trkpt>
      <trkpt lat="44.06282" lon="7.19435">
        <ele>1198.42</ele>
        <time>2017-07-27T11:55:22Z</time>
      </trkpt>
      <trkpt lat="44.0629" lon="7.19458">
        <ele>1199.38</ele>
        <time>2017-07-27T11:55:39Z</time>
      </trkpt>
      <trkpt lat="44.06295" lon="7.19474">
        <ele>1201.3</ele>
        <time>2017-07-27T11:55:54Z</time>
      </trkpt>
      <trkpt lat="44.06299" lon="7.19489">
        <ele>1202.27</ele>
        <time>2017-07-27T11:56:08Z</time>
      </trkpt>
      <trkpt lat="44.06305" lon="7.19508">
        <ele>1203.71</ele>
        <time>2017-07-27T11:56:22Z</time>
      </trkpt>
      <trkpt lat="44.06308" lon="7.19529">
        <ele>1204.67</ele>
        <time>2017-07-27T11:56:38Z</time>
      </trkpt>
      <trkpt lat="44.0631" lon="7.19544">
        <ele>1205.63</ele>
        <time>2017-07-27T11:56:51Z</time>
      </trkpt>
      <trkpt lat="44.0631" lon="7.19562">
        <ele>1207.07</ele>
        <time>2017-07-27T11:57:07Z</time>
      </trkpt>
      <trkpt lat="44.06323" lon="7.19571">
        <ele>1208.03</ele>
        <time>2017-07-27T11:57:22Z</time>
      </trkpt>
      <trkpt lat="44.0632" lon="7.19586">
        <ele>1209</ele>
        <time>2017-07-27T11:57:38Z</time>
      </trkpt>
      <trkpt lat="44.06317" lon="7.19604">
        <ele>1210.44</ele>
        <time>2017-07-27T11:57:53Z</time>
      </trkpt>
      <trkpt lat="44.06314" lon="7.19619">
        <ele>1211.4</ele>
        <time>2017-07-27T11:58:08Z</time>
      </trkpt>
      <trkpt lat="44.06319" lon="7.19632">
        <ele>1213.32</ele>
        <time>2017-07-27T11:58:22Z</time>
      </trkpt>
      <trkpt lat="44.06328" lon="7.19649">
        <ele>1214.28</ele>
        <time>2017-07-27T11:58:36Z</time>
      </trkpt>
      <trkpt lat="44.06339" lon="7.19658">
        <ele>1215.72</ele>
        <time>2017-07-27T11:58:50Z</time>
      </trkpt>
      <trkpt lat="44.06343" lon="7.19672">
        <ele>1217.17</ele>
        <time>2017-07-27T11:59:04Z</time>
      </trkpt>
      <trkpt lat="44.06348" lon="7.19689">
        <ele>1218.61</ele>
        <time>2017-07-27T11:59:21Z</time>
      </trkpt>
      <trkpt lat="44.06357" lon="7.19708">
        <ele>1219.57</ele>
        <time>2017-07-27T11:59:37Z</time>
      </trkpt>
      <trkpt lat="44.06365" lon="7.19719">
        <ele>1221.49</ele>
        <time>2017-07-27T11:59:54Z</time>
      </trkpt>
      <trkpt lat="44.06373" lon="7.19732">
        <ele>1222.45</ele>
        <time>2017-07-27T12:00:08Z</time>
      </trkpt>
      <trkpt lat="44.06383" lon="7.19742">
        <ele>1224.38</ele>
        <time>2017-07-27T12:00:22Z</time>
      </trkpt>
      <trkpt lat="44.06396" lon="7.19752">
        <ele>1226.3</ele>
        <time>2017-07-27T12:00:37Z</time>
      </trkpt>
      <trkpt lat="44.064" lon="7.19763">
        <ele>1227.74</ele>
        <time>2017-07-27T12:00:50Z</time>
      </trkpt>
      <trkpt lat="44.06411" lon="7.19773">
        <ele>1229.66</ele>
        <time>2017-07-27T12:01:04Z</time>
      </trkpt>
      <trkpt lat="44.06417" lon="7.19789">
        <ele>1230.62</ele>
        <time>2017-07-27T12:01:19Z</time>
      </trkpt>
      <trkpt lat="44.0642" lon="7.19804">
        <ele>1231.59</ele>
        <time>2017-07-27T12:01:36Z</time>
      </trkpt>
      <trkpt lat="44.06423" lon="7.19818">
        <ele>1233.51</ele>
        <time>2017-07-27T12:01:51Z</time>
      </trkpt>
      <trkpt lat="44.06431" lon="7.19836">
        <ele>1235.43</ele>
        <time>2017-07-27T12:02:06Z</time>
      </trkpt>
      <trkpt lat="44.06441" lon="7.19844">
        <ele>1237.35</ele>
        <time>2017-07-27T12:02:21Z</time>
      </trkpt>
      <trkpt lat="44.06451" lon="7.19856">
        <ele>1239.28</ele>
        <time>2017-07-27T12:02:37Z</time>
      </trkpt>
      <trkpt lat="44.06462" lon="7.19865">
        <ele>1240.72</ele>
        <time>2017-07-27T12:02:52Z</time>
      </trkpt>
      <trkpt lat="44.06473" lon="7.19879">
        <ele>1242.16</ele>
        <time>2017-07-27T12:03:09Z</time>
      </trkpt>
      <trkpt lat="44.0648" lon="7.19886">
        <ele>1244.08</ele>
        <time>2017-07-27T12:03:22Z</time>
      </trkpt>
      <trkpt lat="44.0648" lon="7.1989">
        <ele>1244.08</ele>
        <time>2017-07-27T12:03:41Z</time>
      </trkpt>
      <trkpt lat="44.0648" lon="7.19888">
        <ele>1243.6</ele>
        <time>2017-07-27T12:03:59Z</time>
      </trkpt>
      <trkpt lat="44.06479" lon="7.19889">
        <ele>1244.08</ele>
        <time>2017-07-27T12:04:18Z</time>
      </trkpt>
      <trkpt lat="44.0648" lon="7.19888">
        <ele>1244.08</ele>
        <time>2017-07-27T12:04:47Z</time>
      </trkpt>
      <trkpt lat="44.06484" lon="7.19893">
        <ele>1244.08</ele>
        <time>2017-07-27T12:05:12Z</time>
      </trkpt>
      <trkpt lat="44.06491" lon="7.19903">
        <ele>1245.53</ele>
        <time>2017-07-27T12:05:26Z</time>
      </trkpt>
      <trkpt lat="44.065" lon="7.19912">
        <ele>1246.97</ele>
        <time>2017-07-27T12:05:41Z</time>
      </trkpt>
      <trkpt lat="44.06506" lon="7.19922">
        <ele>1248.41</ele>
        <time>2017-07-27T12:05:58Z</time>
      </trkpt>
      <trkpt lat="44.06512" lon="7.19928">
        <ele>1249.37</ele>
        <time>2017-07-27T12:06:17Z</time>
      </trkpt>
      <trkpt lat="44.06518" lon="7.19939">
        <ele>1251.29</ele>
        <time>2017-07-27T12:06:32Z</time>
      </trkpt>
      <trkpt lat="44.06519" lon="7.1994">
        <ele>1251.29</ele>
        <time>2017-07-27T12:06:34Z</time>
      </trkpt>
      <trkpt lat="44.06526" lon="7.19953">
        <ele>1252.25</ele>
        <time>2017-07-27T12:06:48Z</time>
      </trkpt>
      <trkpt lat="44.0653" lon="7.19965">
        <ele>1253.22</ele>
        <time>2017-07-27T12:07:01Z</time>
      </trkpt>
      <trkpt lat="44.06533" lon="7.19972">
        <ele>1254.66</ele>
        <time>2017-07-27T12:07:15Z</time>
      </trkpt>
      <trkpt lat="44.06539" lon="7.19984">
        <ele>1255.62</ele>
        <time>2017-07-27T12:07:28Z</time>
      </trkpt>
      <trkpt lat="44.06552" lon="7.1999">
        <ele>1257.06</ele>
        <time>2017-07-27T12:07:44Z</time>
      </trkpt>
      <trkpt lat="44.06566" lon="7.19995">
        <ele>1258.98</ele>
        <time>2017-07-27T12:08:01Z</time>
      </trkpt>
      <trkpt lat="44.06574" lon="7.20011">
        <ele>1260.43</ele>
        <time>2017-07-27T12:08:16Z</time>
      </trkpt>
      <trkpt lat="44.06577" lon="7.20019">
        <ele>1261.87</ele>
        <time>2017-07-27T12:08:30Z</time>
      </trkpt>
      <trkpt lat="44.06581" lon="7.20024">
        <ele>1261.87</ele>
        <time>2017-07-27T12:08:44Z</time>
      </trkpt>
      <trkpt lat="44.06591" lon="7.20023">
        <ele>1262.35</ele>
        <time>2017-07-27T12:08:56Z</time>
      </trkpt>
      <trkpt lat="44.06603" lon="7.2002">
        <ele>1264.27</ele>
        <time>2017-07-27T12:09:11Z</time>
      </trkpt>
      <trkpt lat="44.06608" lon="7.20025">
        <ele>1266.19</ele>
        <time>2017-07-27T12:09:22Z</time>
      </trkpt>
      <trkpt lat="44.06621" lon="7.20035">
        <ele>1268.12</ele>
        <time>2017-07-27T12:09:40Z</time>
      </trkpt>
      <trkpt lat="44.06631" lon="7.20044">
        <ele>1270.04</ele>
        <time>2017-07-27T12:09:54Z</time>
      </trkpt>
      <trkpt lat="44.06641" lon="7.20052">
        <ele>1271.96</ele>
        <time>2017-07-27T12:10:09Z</time>
      </trkpt>
      <trkpt lat="44.06651" lon="7.20061">
        <ele>1273.88</ele>
        <time>2017-07-27T12:10:25Z</time>
      </trkpt>
      <trkpt lat="44.06661" lon="7.20067">
        <ele>1274.85</ele>
        <time>2017-07-27T12:10:39Z</time>
      </trkpt>
      <trkpt lat="44.06663" lon="7.20066">
        <ele>1275.81</ele>
        <time>2017-07-27T12:10:55Z</time>
      </trkpt>
      <trkpt lat="44.06666" lon="7.20074">
        <ele>1275.81</ele>
        <time>2017-07-27T12:11:11Z</time>
      </trkpt>
      <trkpt lat="44.06668" lon="7.2009">
        <ele>1276.77</ele>
        <time>2017-07-27T12:11:28Z</time>
      </trkpt>
      <trkpt lat="44.06668" lon="7.20102">
        <ele>1276.77</ele>
        <time>2017-07-27T12:11:43Z</time>
      </trkpt>
      <trkpt lat="44.06667" lon="7.20113">
        <ele>1277.73</ele>
        <time>2017-07-27T12:11:56Z</time>
      </trkpt>
      <trkpt lat="44.06661" lon="7.20132">
        <ele>1277.73</ele>
        <time>2017-07-27T12:12:13Z</time>
      </trkpt>
      <trkpt lat="44.06648" lon="7.20151">
        <ele>1278.69</ele>
        <time>2017-07-27T12:12:32Z</time>
      </trkpt>
      <trkpt lat="44.06645" lon="7.20159">
        <ele>1279.17</ele>
        <time>2017-07-27T12:12:48Z</time>
      </trkpt>
      <trkpt lat="44.06646" lon="7.2016">
        <ele>1279.17</ele>
        <time>2017-07-27T12:13:04Z</time>
      </trkpt>
      <trkpt lat="44.06643" lon="7.20165">
        <ele>1279.17</ele>
        <time>2017-07-27T12:13:24Z</time>
      </trkpt>
      <trkpt lat="44.06643" lon="7.20165">
        <ele>1279.17</ele>
        <time>2017-07-27T12:13:47Z</time>
      </trkpt>
      <trkpt lat="44.06642" lon="7.20162">
        <ele>1280.13</ele>
        <time>2017-07-27T12:14:17Z</time>
      </trkpt>
      <trkpt lat="44.06644" lon="7.20162">
        <ele>1280.13</ele>
        <time>2017-07-27T12:14:46Z</time>
      </trkpt>
      <trkpt lat="44.06645" lon="7.20162">
        <ele>1280.13</ele>
        <time>2017-07-27T12:15:12Z</time>
      </trkpt>
      <trkpt lat="44.06644" lon="7.2016">
        <ele>1280.13</ele>
        <time>2017-07-27T12:15:32Z</time>
      </trkpt>
      <trkpt lat="44.06645" lon="7.2016">
        <ele>1280.13</ele>
        <time>2017-07-27T12:15:54Z</time>
      </trkpt>
      <trkpt lat="44.06646" lon="7.20165">
        <ele>1280.61</ele>
        <time>2017-07-27T12:16:07Z</time>
      </trkpt>
      <trkpt lat="44.06644" lon="7.20174">
        <ele>1280.61</ele>
        <time>2017-07-27T12:16:16Z</time>
      </trkpt>
      <trkpt lat="44.06645" lon="7.20186">
        <ele>1281.09</ele>
        <time>2017-07-27T12:16:26Z</time>
      </trkpt>
      <trkpt lat="44.06645" lon="7.20191">
        <ele>1281.09</ele>
        <time>2017-07-27T12:16:31Z</time>
      </trkpt>
      <trkpt lat="44.06645" lon="7.20197">
        <ele>1281.09</ele>
        <time>2017-07-27T12:16:36Z</time>
      </trkpt>
      <trkpt lat="44.06647" lon="7.20204">
        <ele>1282.06</ele>
        <time>2017-07-27T12:16:41Z</time>
      </trkpt>
      <trkpt lat="44.06648" lon="7.20214">
        <ele>1282.06</ele>
        <time>2017-07-27T12:16:49Z</time>
      </trkpt>
      <trkpt lat="44.06648" lon="7.2022">
        <ele>1282.54</ele>
        <time>2017-07-27T12:16:53Z</time>
      </trkpt>
      <trkpt lat="44.0665" lon="7.20234">
        <ele>1282.06</ele>
        <time>2017-07-27T12:17:04Z</time>
      </trkpt>
      <trkpt lat="44.06649" lon="7.20247">
        <ele>1284.94</ele>
        <time>2017-07-27T12:17:13Z</time>
      </trkpt>
      <trkpt lat="44.0665" lon="7.20249">
        <ele>1284.94</ele>
        <time>2017-07-27T12:17:15Z</time>
      </trkpt>
      <trkpt lat="44.06651" lon="7.20264">
        <ele>1284.94</ele>
        <time>2017-07-27T12:17:30Z</time>
      </trkpt>
      <trkpt lat="44.06653" lon="7.20279">
        <ele>1285.9</ele>
        <time>2017-07-27T12:17:43Z</time>
      </trkpt>
      <trkpt lat="44.0665" lon="7.203">
        <ele>1286.86</ele>
        <time>2017-07-27T12:17:58Z</time>
      </trkpt>
      <trkpt lat="44.06648" lon="7.20305">
        <ele>1286.86</ele>
        <time>2017-07-27T12:18:12Z</time>
      </trkpt>
      <trkpt lat="44.06645" lon="7.20309">
        <ele>1287.34</ele>
        <time>2017-07-27T12:18:17Z</time>
      </trkpt>
      <trkpt lat="44.06643" lon="7.20331">
        <ele>1287.34</ele>
        <time>2017-07-27T12:18:32Z</time>
      </trkpt>
      <trkpt lat="44.06642" lon="7.20344">
        <ele>1287.34</ele>
        <time>2017-07-27T12:18:46Z</time>
      </trkpt>
      <trkpt lat="44.06643" lon="7.20343">
        <ele>1287.34</ele>
        <time>2017-07-27T12:19:12Z</time>
      </trkpt>
      <trkpt lat="44.0664" lon="7.20351">
        <ele>1287.34</ele>
        <time>2017-07-27T12:19:30Z</time>
      </trkpt>
      <trkpt lat="44.06632" lon="7.20366">
        <ele>1287.82</ele>
        <time>2017-07-27T12:19:46Z</time>
      </trkpt>
      <trkpt lat="44.06628" lon="7.20375">
        <ele>1288.3</ele>
        <time>2017-07-27T12:19:59Z</time>
      </trkpt>
      <trkpt lat="44.06626" lon="7.20394">
        <ele>1289.27</ele>
        <time>2017-07-27T12:20:13Z</time>
      </trkpt>
      <trkpt lat="44.0662" lon="7.20412">
        <ele>1291.19</ele>
        <time>2017-07-27T12:20:28Z</time>
      </trkpt>
      <trkpt lat="44.0661" lon="7.20418">
        <ele>1293.59</ele>
        <time>2017-07-27T12:20:45Z</time>
      </trkpt>
      <trkpt lat="44.06608" lon="7.20417">
        <ele>1293.59</ele>
        <time>2017-07-27T12:20:48Z</time>
      </trkpt>
      <trkpt lat="44.06604" lon="7.20415">
        <ele>1293.11</ele>
        <time>2017-07-27T12:20:52Z</time>
      </trkpt>
      <trkpt lat="44.06601" lon="7.20413">
        <ele>1293.11</ele>
        <time>2017-07-27T12:20:55Z</time>
      </trkpt>
      <trkpt lat="44.06598" lon="7.20412">
        <ele>1293.11</ele>
        <time>2017-07-27T12:20:59Z</time>
      </trkpt>
      <trkpt lat="44.06594" lon="7.20406">
        <ele>1293.59</ele>
        <time>2017-07-27T12:21:07Z</time>
      </trkpt>
      <trkpt lat="44.06591" lon="7.20404">
        <ele>1293.59</ele>
        <time>2017-07-27T12:21:11Z</time>
      </trkpt>
      <trkpt lat="44.06585" lon="7.20402">
        <ele>1294.07</ele>
        <time>2017-07-27T12:21:24Z</time>
      </trkpt>
    </trkseg>
  </trk>
</gpx>